<?xml version="1.0" encoding="UTF-8" standalone="no" ?>
<gpx xmlns="http://www.topografix.com/GPX/1/1" xmlns:xsi="http://www.w3.org/2001/XMLSchema-instance" xsi:schemaLocation="http://www.topografix.com/GPX/1/1 http://www.topografix.com/GPX/1/1/gpx.xsd" version="1.1" creator="VisuGPX - https://www.visugpx.com">
  <metadata>
    <name>Saint Martin Orgnac</name>
  </metadata>
  <trk>
    <name><![CDATA[13608974-parcours 21]]></name>
    <trkseg>
      <trkpt lat="44.31187" lon="4.55474">
        <ele>61</ele>
        <time>2021-09-24T16:53:01Z</time>
      </trkpt>
      <trkpt lat="44.31173" lon="4.55482">
        <ele>60</ele>
        <time>2021-09-24T16:53:05Z</time>
      </trkpt>
      <trkpt lat="44.31141" lon="4.55513">
        <ele>61</ele>
        <time>2021-09-24T16:53:14Z</time>
      </trkpt>
      <trkpt lat="44.31124" lon="4.55495">
        <ele>60</ele>
        <time>2021-09-24T16:53:19Z</time>
      </trkpt>
      <trkpt lat="44.31116" lon="4.55492">
        <ele>60</ele>
        <time>2021-09-24T16:53:21Z</time>
      </trkpt>
      <trkpt lat="44.31105" lon="4.55496">
        <ele>60</ele>
        <time>2021-09-24T16:53:23Z</time>
      </trkpt>
      <trkpt lat="44.31083" lon="4.55513">
        <ele>60</ele>
        <time>2021-09-24T16:53:29Z</time>
      </trkpt>
      <trkpt lat="44.31077" lon="4.55512">
        <ele>60</ele>
        <time>2021-09-24T16:53:30Z</time>
      </trkpt>
      <trkpt lat="44.31072" lon="4.555">
        <ele>60</ele>
        <time>2021-09-24T16:53:33Z</time>
      </trkpt>
      <trkpt lat="44.31072" lon="4.55478">
        <ele>58</ele>
        <time>2021-09-24T16:53:36Z</time>
      </trkpt>
      <trkpt lat="44.31062" lon="4.55446">
        <ele>56</ele>
        <time>2021-09-24T16:53:42Z</time>
      </trkpt>
      <trkpt lat="44.31088" lon="4.55416">
        <ele>55</ele>
        <time>2021-09-24T16:53:50Z</time>
      </trkpt>
      <trkpt lat="44.31095" lon="4.55395">
        <ele>54</ele>
        <time>2021-09-24T16:53:54Z</time>
      </trkpt>
      <trkpt lat="44.3109" lon="4.55383">
        <ele>53</ele>
        <time>2021-09-24T16:53:56Z</time>
      </trkpt>
      <trkpt lat="44.31072" lon="4.55386">
        <ele>52</ele>
        <time>2021-09-24T16:54:01Z</time>
      </trkpt>
      <trkpt lat="44.3104" lon="4.55398">
        <ele>52</ele>
        <time>2021-09-24T16:54:08Z</time>
      </trkpt>
      <trkpt lat="44.31004" lon="4.55423">
        <ele>53</ele>
        <time>2021-09-24T16:54:18Z</time>
      </trkpt>
      <trkpt lat="44.30991" lon="4.55427">
        <ele>52</ele>
        <time>2021-09-24T16:54:21Z</time>
      </trkpt>
      <trkpt lat="44.30963" lon="4.55425">
        <ele>51</ele>
        <time>2021-09-24T16:54:27Z</time>
      </trkpt>
      <trkpt lat="44.30929" lon="4.55456">
        <ele>51</ele>
        <time>2021-09-24T16:54:37Z</time>
      </trkpt>
      <trkpt lat="44.30892" lon="4.55478">
        <ele>51</ele>
        <time>2021-09-24T16:54:46Z</time>
      </trkpt>
      <trkpt lat="44.30857" lon="4.55487">
        <ele>51</ele>
        <time>2021-09-24T16:54:55Z</time>
      </trkpt>
      <trkpt lat="44.30804" lon="4.55536">
        <ele>51</ele>
        <time>2021-09-24T16:55:09Z</time>
      </trkpt>
      <trkpt lat="44.30781" lon="4.55551">
        <ele>51</ele>
        <time>2021-09-24T16:55:15Z</time>
      </trkpt>
      <trkpt lat="44.30718" lon="4.55614">
        <ele>51</ele>
        <time>2021-09-24T16:55:33Z</time>
      </trkpt>
      <trkpt lat="44.30668" lon="4.55649">
        <ele>49</ele>
        <time>2021-09-24T16:55:46Z</time>
      </trkpt>
      <trkpt lat="44.30591" lon="4.55727">
        <ele>47</ele>
        <time>2021-09-24T16:56:09Z</time>
      </trkpt>
      <trkpt lat="44.30568" lon="4.55756">
        <ele>47</ele>
        <time>2021-09-24T16:56:16Z</time>
      </trkpt>
      <trkpt lat="44.30546" lon="4.55795">
        <ele>48</ele>
        <time>2021-09-24T16:56:24Z</time>
      </trkpt>
      <trkpt lat="44.30514" lon="4.55826">
        <ele>49</ele>
        <time>2021-09-24T16:56:33Z</time>
      </trkpt>
      <trkpt lat="44.30482" lon="4.55874">
        <ele>49</ele>
        <time>2021-09-24T16:56:44Z</time>
      </trkpt>
      <trkpt lat="44.30454" lon="4.55885">
        <ele>49</ele>
        <time>2021-09-24T16:56:51Z</time>
      </trkpt>
      <trkpt lat="44.30448" lon="4.55895">
        <ele>49</ele>
        <time>2021-09-24T16:56:53Z</time>
      </trkpt>
      <trkpt lat="44.30439" lon="4.55933">
        <ele>50</ele>
        <time>2021-09-24T16:57:00Z</time>
      </trkpt>
      <trkpt lat="44.30418" lon="4.55953">
        <ele>50</ele>
        <time>2021-09-24T16:57:06Z</time>
      </trkpt>
      <trkpt lat="44.30402" lon="4.55961">
        <ele>49</ele>
        <time>2021-09-24T16:57:10Z</time>
      </trkpt>
      <trkpt lat="44.30354" lon="4.5601">
        <ele>48</ele>
        <time>2021-09-24T16:57:24Z</time>
      </trkpt>
      <trkpt lat="44.30343" lon="4.56037">
        <ele>48</ele>
        <time>2021-09-24T16:57:29Z</time>
      </trkpt>
      <trkpt lat="44.30325" lon="4.56054">
        <ele>48</ele>
        <time>2021-09-24T16:57:34Z</time>
      </trkpt>
      <trkpt lat="44.30307" lon="4.56082">
        <ele>49</ele>
        <time>2021-09-24T16:57:40Z</time>
      </trkpt>
      <trkpt lat="44.30293" lon="4.56148">
        <ele>51</ele>
        <time>2021-09-24T16:57:52Z</time>
      </trkpt>
      <trkpt lat="44.30193" lon="4.56321">
        <ele>52</ele>
        <time>2021-09-24T16:58:29Z</time>
      </trkpt>
      <trkpt lat="44.30181" lon="4.56345">
        <ele>51</ele>
        <time>2021-09-24T16:58:34Z</time>
      </trkpt>
      <trkpt lat="44.30157" lon="4.5642">
        <ele>49</ele>
        <time>2021-09-24T16:58:48Z</time>
      </trkpt>
      <trkpt lat="44.30128" lon="4.56546">
        <ele>51</ele>
        <time>2021-09-24T16:59:10Z</time>
      </trkpt>
      <trkpt lat="44.30136" lon="4.56604">
        <ele>52</ele>
        <time>2021-09-24T16:59:20Z</time>
      </trkpt>
      <trkpt lat="44.30132" lon="4.56659">
        <ele>54</ele>
        <time>2021-09-24T16:59:29Z</time>
      </trkpt>
      <trkpt lat="44.30128" lon="4.56677">
        <ele>54</ele>
        <time>2021-09-24T16:59:32Z</time>
      </trkpt>
      <trkpt lat="44.30117" lon="4.56694">
        <ele>54</ele>
        <time>2021-09-24T16:59:36Z</time>
      </trkpt>
      <trkpt lat="44.30106" lon="4.56727">
        <ele>55</ele>
        <time>2021-09-24T16:59:42Z</time>
      </trkpt>
      <trkpt lat="44.30099" lon="4.56734">
        <ele>55</ele>
        <time>2021-09-24T16:59:44Z</time>
      </trkpt>
      <trkpt lat="44.30086" lon="4.56735">
        <ele>54</ele>
        <time>2021-09-24T16:59:47Z</time>
      </trkpt>
      <trkpt lat="44.30013" lon="4.567">
        <ele>49</ele>
        <time>2021-09-24T17:00:05Z</time>
      </trkpt>
      <trkpt lat="44.29986" lon="4.56681">
        <ele>49</ele>
        <time>2021-09-24T17:00:12Z</time>
      </trkpt>
      <trkpt lat="44.29926" lon="4.56651">
        <ele>56</ele>
        <time>2021-09-24T17:00:27Z</time>
      </trkpt>
      <trkpt lat="44.29921" lon="4.56641">
        <ele>57</ele>
        <time>2021-09-24T17:00:29Z</time>
      </trkpt>
      <trkpt lat="44.29937" lon="4.56616">
        <ele>56</ele>
        <time>2021-09-24T17:00:35Z</time>
      </trkpt>
      <trkpt lat="44.29956" lon="4.5656">
        <ele>56</ele>
        <time>2021-09-24T17:00:45Z</time>
      </trkpt>
      <trkpt lat="44.30007" lon="4.56364">
        <ele>69</ele>
        <time>2021-09-24T17:01:20Z</time>
      </trkpt>
      <trkpt lat="44.30019" lon="4.56332">
        <ele>70</ele>
        <time>2021-09-24T17:01:26Z</time>
      </trkpt>
      <trkpt lat="44.30034" lon="4.56182">
        <ele>76</ele>
        <time>2021-09-24T17:01:51Z</time>
      </trkpt>
      <trkpt lat="44.30042" lon="4.56142">
        <ele>78</ele>
        <time>2021-09-24T17:01:58Z</time>
      </trkpt>
      <trkpt lat="44.3011" lon="4.55973">
        <ele>85</ele>
        <time>2021-09-24T17:02:30Z</time>
      </trkpt>
      <trkpt lat="44.30142" lon="4.55879">
        <ele>89</ele>
        <time>2021-09-24T17:02:48Z</time>
      </trkpt>
      <trkpt lat="44.30142" lon="4.55858">
        <ele>91</ele>
        <time>2021-09-24T17:02:51Z</time>
      </trkpt>
      <trkpt lat="44.30128" lon="4.55822">
        <ele>94</ele>
        <time>2021-09-24T17:02:58Z</time>
      </trkpt>
      <trkpt lat="44.30108" lon="4.55695">
        <ele>94</ele>
        <time>2021-09-24T17:03:20Z</time>
      </trkpt>
      <trkpt lat="44.30112" lon="4.55684">
        <ele>93</ele>
        <time>2021-09-24T17:03:22Z</time>
      </trkpt>
      <trkpt lat="44.30123" lon="4.55673">
        <ele>93</ele>
        <time>2021-09-24T17:03:25Z</time>
      </trkpt>
      <trkpt lat="44.30203" lon="4.55638">
        <ele>92</ele>
        <time>2021-09-24T17:03:45Z</time>
      </trkpt>
      <trkpt lat="44.3024" lon="4.55616">
        <ele>92</ele>
        <time>2021-09-24T17:03:54Z</time>
      </trkpt>
      <trkpt lat="44.30263" lon="4.55607">
        <ele>92</ele>
        <time>2021-09-24T17:04:00Z</time>
      </trkpt>
      <trkpt lat="44.30265" lon="4.55602">
        <ele>92</ele>
        <time>2021-09-24T17:04:01Z</time>
      </trkpt>
      <trkpt lat="44.30248" lon="4.55561">
        <ele>92</ele>
        <time>2021-09-24T17:04:09Z</time>
      </trkpt>
      <trkpt lat="44.30215" lon="4.55512">
        <ele>94</ele>
        <time>2021-09-24T17:04:20Z</time>
      </trkpt>
      <trkpt lat="44.30185" lon="4.55487">
        <ele>95</ele>
        <time>2021-09-24T17:04:28Z</time>
      </trkpt>
      <trkpt lat="44.30169" lon="4.55482">
        <ele>95</ele>
        <time>2021-09-24T17:04:32Z</time>
      </trkpt>
      <trkpt lat="44.30146" lon="4.55481">
        <ele>95</ele>
        <time>2021-09-24T17:04:37Z</time>
      </trkpt>
      <trkpt lat="44.30139" lon="4.55474">
        <ele>96</ele>
        <time>2021-09-24T17:04:39Z</time>
      </trkpt>
      <trkpt lat="44.30125" lon="4.5541">
        <ele>95</ele>
        <time>2021-09-24T17:04:50Z</time>
      </trkpt>
      <trkpt lat="44.30116" lon="4.55306">
        <ele>96</ele>
        <time>2021-09-24T17:05:08Z</time>
      </trkpt>
      <trkpt lat="44.3011" lon="4.55301">
        <ele>96</ele>
        <time>2021-09-24T17:05:10Z</time>
      </trkpt>
      <trkpt lat="44.30093" lon="4.553">
        <ele>96</ele>
        <time>2021-09-24T17:05:14Z</time>
      </trkpt>
      <trkpt lat="44.30083" lon="4.55295">
        <ele>95</ele>
        <time>2021-09-24T17:05:16Z</time>
      </trkpt>
      <trkpt lat="44.30049" lon="4.55257">
        <ele>96</ele>
        <time>2021-09-24T17:05:26Z</time>
      </trkpt>
      <trkpt lat="44.30016" lon="4.5524">
        <ele>97</ele>
        <time>2021-09-24T17:05:34Z</time>
      </trkpt>
      <trkpt lat="44.29985" lon="4.55232">
        <ele>97</ele>
        <time>2021-09-24T17:05:42Z</time>
      </trkpt>
      <trkpt lat="44.29955" lon="4.55205">
        <ele>96</ele>
        <time>2021-09-24T17:05:50Z</time>
      </trkpt>
      <trkpt lat="44.299" lon="4.55143">
        <ele>95</ele>
        <time>2021-09-24T17:06:07Z</time>
      </trkpt>
      <trkpt lat="44.29858" lon="4.55105">
        <ele>93</ele>
        <time>2021-09-24T17:06:18Z</time>
      </trkpt>
      <trkpt lat="44.29834" lon="4.55034">
        <ele>93</ele>
        <time>2021-09-24T17:06:31Z</time>
      </trkpt>
      <trkpt lat="44.29826" lon="4.55007">
        <ele>93</ele>
        <time>2021-09-24T17:06:36Z</time>
      </trkpt>
      <trkpt lat="44.29815" lon="4.54912">
        <ele>94</ele>
        <time>2021-09-24T17:06:52Z</time>
      </trkpt>
      <trkpt lat="44.29819" lon="4.54816">
        <ele>95</ele>
        <time>2021-09-24T17:07:08Z</time>
      </trkpt>
      <trkpt lat="44.29832" lon="4.54753">
        <ele>94</ele>
        <time>2021-09-24T17:07:19Z</time>
      </trkpt>
      <trkpt lat="44.29832" lon="4.54732">
        <ele>95</ele>
        <time>2021-09-24T17:07:23Z</time>
      </trkpt>
      <trkpt lat="44.29822" lon="4.54711">
        <ele>95</ele>
        <time>2021-09-24T17:07:27Z</time>
      </trkpt>
      <trkpt lat="44.2979" lon="4.54664">
        <ele>95</ele>
        <time>2021-09-24T17:07:38Z</time>
      </trkpt>
      <trkpt lat="44.29744" lon="4.54565">
        <ele>94</ele>
        <time>2021-09-24T17:07:58Z</time>
      </trkpt>
      <trkpt lat="44.29729" lon="4.54506">
        <ele>94</ele>
        <time>2021-09-24T17:08:08Z</time>
      </trkpt>
      <trkpt lat="44.29727" lon="4.54446">
        <ele>95</ele>
        <time>2021-09-24T17:08:18Z</time>
      </trkpt>
      <trkpt lat="44.29703" lon="4.54381">
        <ele>96</ele>
        <time>2021-09-24T17:08:30Z</time>
      </trkpt>
      <trkpt lat="44.29695" lon="4.54327">
        <ele>97</ele>
        <time>2021-09-24T17:08:40Z</time>
      </trkpt>
      <trkpt lat="44.29674" lon="4.54055">
        <ele>98</ele>
        <time>2021-09-24T17:09:25Z</time>
      </trkpt>
      <trkpt lat="44.29667" lon="4.53882">
        <ele>101</ele>
        <time>2021-09-24T17:09:54Z</time>
      </trkpt>
      <trkpt lat="44.29653" lon="4.53814">
        <ele>102</ele>
        <time>2021-09-24T17:10:06Z</time>
      </trkpt>
      <trkpt lat="44.29657" lon="4.53624">
        <ele>104</ele>
        <time>2021-09-24T17:10:38Z</time>
      </trkpt>
      <trkpt lat="44.29657" lon="4.53598">
        <ele>104</ele>
        <time>2021-09-24T17:10:42Z</time>
      </trkpt>
      <trkpt lat="44.29653" lon="4.53584">
        <ele>105</ele>
        <time>2021-09-24T17:10:45Z</time>
      </trkpt>
      <trkpt lat="44.29641" lon="4.5357">
        <ele>105</ele>
        <time>2021-09-24T17:10:48Z</time>
      </trkpt>
      <trkpt lat="44.29622" lon="4.53566">
        <ele>104</ele>
        <time>2021-09-24T17:10:53Z</time>
      </trkpt>
      <trkpt lat="44.29518" lon="4.53579">
        <ele>100</ele>
        <time>2021-09-24T17:11:17Z</time>
      </trkpt>
      <trkpt lat="44.29467" lon="4.53575">
        <ele>97</ele>
        <time>2021-09-24T17:11:29Z</time>
      </trkpt>
      <trkpt lat="44.29435" lon="4.53561">
        <ele>95</ele>
        <time>2021-09-24T17:11:37Z</time>
      </trkpt>
      <trkpt lat="44.29355" lon="4.53495">
        <ele>89</ele>
        <time>2021-09-24T17:11:59Z</time>
      </trkpt>
      <trkpt lat="44.29336" lon="4.53488">
        <ele>87</ele>
        <time>2021-09-24T17:12:03Z</time>
      </trkpt>
      <trkpt lat="44.29289" lon="4.53493">
        <ele>84</ele>
        <time>2021-09-24T17:12:14Z</time>
      </trkpt>
      <trkpt lat="44.29213" lon="4.53471">
        <ele>87</ele>
        <time>2021-09-24T17:12:32Z</time>
      </trkpt>
      <trkpt lat="44.29178" lon="4.53484">
        <ele>88</ele>
        <time>2021-09-24T17:12:41Z</time>
      </trkpt>
      <trkpt lat="44.29149" lon="4.53486">
        <ele>88</ele>
        <time>2021-09-24T17:12:48Z</time>
      </trkpt>
      <trkpt lat="44.29107" lon="4.53477">
        <ele>90</ele>
        <time>2021-09-24T17:12:58Z</time>
      </trkpt>
      <trkpt lat="44.29032" lon="4.5345">
        <ele>92</ele>
        <time>2021-09-24T17:13:16Z</time>
      </trkpt>
      <trkpt lat="44.28979" lon="4.53412">
        <ele>91</ele>
        <time>2021-09-24T17:13:30Z</time>
      </trkpt>
      <trkpt lat="44.28938" lon="4.53368">
        <ele>92</ele>
        <time>2021-09-24T17:13:42Z</time>
      </trkpt>
      <trkpt lat="44.28887" lon="4.53252">
        <ele>95</ele>
        <time>2021-09-24T17:14:04Z</time>
      </trkpt>
      <trkpt lat="44.28866" lon="4.53222">
        <ele>98</ele>
        <time>2021-09-24T17:14:11Z</time>
      </trkpt>
      <trkpt lat="44.28797" lon="4.53157">
        <ele>101</ele>
        <time>2021-09-24T17:14:31Z</time>
      </trkpt>
      <trkpt lat="44.2873" lon="4.5312">
        <ele>102</ele>
        <time>2021-09-24T17:14:48Z</time>
      </trkpt>
      <trkpt lat="44.28718" lon="4.53103">
        <ele>103</ele>
        <time>2021-09-24T17:14:52Z</time>
      </trkpt>
      <trkpt lat="44.28713" lon="4.53086">
        <ele>104</ele>
        <time>2021-09-24T17:14:55Z</time>
      </trkpt>
      <trkpt lat="44.28721" lon="4.53079">
        <ele>105</ele>
        <time>2021-09-24T17:14:57Z</time>
      </trkpt>
      <trkpt lat="44.28766" lon="4.53095">
        <ele>106</ele>
        <time>2021-09-24T17:15:08Z</time>
      </trkpt>
      <trkpt lat="44.28784" lon="4.53096">
        <ele>107</ele>
        <time>2021-09-24T17:15:12Z</time>
      </trkpt>
      <trkpt lat="44.28796" lon="4.53088">
        <ele>108</ele>
        <time>2021-09-24T17:15:15Z</time>
      </trkpt>
      <trkpt lat="44.2882" lon="4.53043">
        <ele>112</ele>
        <time>2021-09-24T17:15:25Z</time>
      </trkpt>
      <trkpt lat="44.28867" lon="4.53024">
        <ele>116</ele>
        <time>2021-09-24T17:15:36Z</time>
      </trkpt>
      <trkpt lat="44.28911" lon="4.5298">
        <ele>121</ele>
        <time>2021-09-24T17:15:49Z</time>
      </trkpt>
      <trkpt lat="44.2893" lon="4.52979">
        <ele>122</ele>
        <time>2021-09-24T17:15:53Z</time>
      </trkpt>
      <trkpt lat="44.28946" lon="4.52985">
        <ele>122</ele>
        <time>2021-09-24T17:15:57Z</time>
      </trkpt>
      <trkpt lat="44.28963" lon="4.5298">
        <ele>123</ele>
        <time>2021-09-24T17:16:01Z</time>
      </trkpt>
      <trkpt lat="44.29" lon="4.5294">
        <ele>127</ele>
        <time>2021-09-24T17:16:12Z</time>
      </trkpt>
      <trkpt lat="44.2902" lon="4.529">
        <ele>132</ele>
        <time>2021-09-24T17:16:20Z</time>
      </trkpt>
      <trkpt lat="44.29027" lon="4.52873">
        <ele>135</ele>
        <time>2021-09-24T17:16:25Z</time>
      </trkpt>
      <trkpt lat="44.29064" lon="4.52847">
        <ele>141</ele>
        <time>2021-09-24T17:16:35Z</time>
      </trkpt>
      <trkpt lat="44.29087" lon="4.52817">
        <ele>144</ele>
        <time>2021-09-24T17:16:42Z</time>
      </trkpt>
      <trkpt lat="44.29113" lon="4.52819">
        <ele>141</ele>
        <time>2021-09-24T17:16:48Z</time>
      </trkpt>
      <trkpt lat="44.29133" lon="4.52833">
        <ele>139</ele>
        <time>2021-09-24T17:16:53Z</time>
      </trkpt>
      <trkpt lat="44.29151" lon="4.52853">
        <ele>138</ele>
        <time>2021-09-24T17:16:59Z</time>
      </trkpt>
      <trkpt lat="44.29155" lon="4.52853">
        <ele>138</ele>
        <time>2021-09-24T17:16:59Z</time>
      </trkpt>
      <trkpt lat="44.29158" lon="4.52848">
        <ele>137</ele>
        <time>2021-09-24T17:17:01Z</time>
      </trkpt>
      <trkpt lat="44.29151" lon="4.5282">
        <ele>137</ele>
        <time>2021-09-24T17:17:06Z</time>
      </trkpt>
      <trkpt lat="44.2916" lon="4.52797">
        <ele>136</ele>
        <time>2021-09-24T17:17:10Z</time>
      </trkpt>
      <trkpt lat="44.29194" lon="4.52743">
        <ele>130</ele>
        <time>2021-09-24T17:17:22Z</time>
      </trkpt>
      <trkpt lat="44.29249" lon="4.52686">
        <ele>122</ele>
        <time>2021-09-24T17:17:38Z</time>
      </trkpt>
      <trkpt lat="44.29341" lon="4.52684">
        <ele>113</ele>
        <time>2021-09-24T17:17:59Z</time>
      </trkpt>
      <trkpt lat="44.29408" lon="4.52691">
        <ele>109</ele>
        <time>2021-09-24T17:18:15Z</time>
      </trkpt>
      <trkpt lat="44.29459" lon="4.52682">
        <ele>109</ele>
        <time>2021-09-24T17:18:27Z</time>
      </trkpt>
      <trkpt lat="44.2953" lon="4.52685">
        <ele>113</ele>
        <time>2021-09-24T17:18:44Z</time>
      </trkpt>
      <trkpt lat="44.29537" lon="4.5268">
        <ele>114</ele>
        <time>2021-09-24T17:18:46Z</time>
      </trkpt>
      <trkpt lat="44.29548" lon="4.52618">
        <ele>115</ele>
        <time>2021-09-24T17:18:56Z</time>
      </trkpt>
      <trkpt lat="44.29547" lon="4.52547">
        <ele>113</ele>
        <time>2021-09-24T17:19:08Z</time>
      </trkpt>
      <trkpt lat="44.29563" lon="4.52496">
        <ele>110</ele>
        <time>2021-09-24T17:19:17Z</time>
      </trkpt>
      <trkpt lat="44.29572" lon="4.5243">
        <ele>107</ele>
        <time>2021-09-24T17:19:29Z</time>
      </trkpt>
      <trkpt lat="44.2958" lon="4.52413">
        <ele>107</ele>
        <time>2021-09-24T17:19:32Z</time>
      </trkpt>
      <trkpt lat="44.29588" lon="4.52406">
        <ele>107</ele>
        <time>2021-09-24T17:19:34Z</time>
      </trkpt>
      <trkpt lat="44.29579" lon="4.5236">
        <ele>111</ele>
        <time>2021-09-24T17:19:42Z</time>
      </trkpt>
      <trkpt lat="44.29589" lon="4.52253">
        <ele>118</ele>
        <time>2021-09-24T17:20:00Z</time>
      </trkpt>
      <trkpt lat="44.29624" lon="4.52144">
        <ele>120</ele>
        <time>2021-09-24T17:20:20Z</time>
      </trkpt>
      <trkpt lat="44.29674" lon="4.52011">
        <ele>123</ele>
        <time>2021-09-24T17:20:45Z</time>
      </trkpt>
      <trkpt lat="44.29709" lon="4.51879">
        <ele>120</ele>
        <time>2021-09-24T17:21:09Z</time>
      </trkpt>
      <trkpt lat="44.2974" lon="4.51781">
        <ele>116</ele>
        <time>2021-09-24T17:21:27Z</time>
      </trkpt>
      <trkpt lat="44.29754" lon="4.51713">
        <ele>116</ele>
        <time>2021-09-24T17:21:39Z</time>
      </trkpt>
      <trkpt lat="44.29778" lon="4.51671">
        <ele>120</ele>
        <time>2021-09-24T17:21:48Z</time>
      </trkpt>
      <trkpt lat="44.29791" lon="4.51635">
        <ele>122</ele>
        <time>2021-09-24T17:21:54Z</time>
      </trkpt>
      <trkpt lat="44.29802" lon="4.51519">
        <ele>123</ele>
        <time>2021-09-24T17:22:14Z</time>
      </trkpt>
      <trkpt lat="44.29806" lon="4.51407">
        <ele>126</ele>
        <time>2021-09-24T17:22:33Z</time>
      </trkpt>
      <trkpt lat="44.29802" lon="4.51338">
        <ele>128</ele>
        <time>2021-09-24T17:22:44Z</time>
      </trkpt>
      <trkpt lat="44.29809" lon="4.51322">
        <ele>128</ele>
        <time>2021-09-24T17:22:47Z</time>
      </trkpt>
      <trkpt lat="44.29809" lon="4.5128">
        <ele>129</ele>
        <time>2021-09-24T17:22:54Z</time>
      </trkpt>
      <trkpt lat="44.29779" lon="4.51021">
        <ele>135</ele>
        <time>2021-09-24T17:23:38Z</time>
      </trkpt>
      <trkpt lat="44.29779" lon="4.50942">
        <ele>133</ele>
        <time>2021-09-24T17:23:51Z</time>
      </trkpt>
      <trkpt lat="44.29811" lon="4.50591">
        <ele>135</ele>
        <time>2021-09-24T17:24:51Z</time>
      </trkpt>
      <trkpt lat="44.29885" lon="4.50262">
        <ele>138</ele>
        <time>2021-09-24T17:25:48Z</time>
      </trkpt>
      <trkpt lat="44.29895" lon="4.50191">
        <ele>137</ele>
        <time>2021-09-24T17:26:00Z</time>
      </trkpt>
      <trkpt lat="44.29886" lon="4.50119">
        <ele>136</ele>
        <time>2021-09-24T17:26:12Z</time>
      </trkpt>
      <trkpt lat="44.29853" lon="4.50019">
        <ele>139</ele>
        <time>2021-09-24T17:26:31Z</time>
      </trkpt>
      <trkpt lat="44.29849" lon="4.49994">
        <ele>140</ele>
        <time>2021-09-24T17:26:35Z</time>
      </trkpt>
      <trkpt lat="44.2987" lon="4.49925">
        <ele>144</ele>
        <time>2021-09-24T17:26:48Z</time>
      </trkpt>
      <trkpt lat="44.29953" lon="4.4972">
        <ele>158</ele>
        <time>2021-09-24T17:27:27Z</time>
      </trkpt>
      <trkpt lat="44.29957" lon="4.49704">
        <ele>158</ele>
        <time>2021-09-24T17:27:30Z</time>
      </trkpt>
      <trkpt lat="44.29954" lon="4.49645">
        <ele>161</ele>
        <time>2021-09-24T17:27:40Z</time>
      </trkpt>
      <trkpt lat="44.2996" lon="4.49614">
        <ele>163</ele>
        <time>2021-09-24T17:27:45Z</time>
      </trkpt>
      <trkpt lat="44.30024" lon="4.49509">
        <ele>168</ele>
        <time>2021-09-24T17:28:08Z</time>
      </trkpt>
      <trkpt lat="44.30039" lon="4.49462">
        <ele>171</ele>
        <time>2021-09-24T17:28:17Z</time>
      </trkpt>
      <trkpt lat="44.30037" lon="4.49426">
        <ele>173</ele>
        <time>2021-09-24T17:28:23Z</time>
      </trkpt>
      <trkpt lat="44.30014" lon="4.49327">
        <ele>177</ele>
        <time>2021-09-24T17:28:40Z</time>
      </trkpt>
      <trkpt lat="44.29999" lon="4.49304">
        <ele>178</ele>
        <time>2021-09-24T17:28:45Z</time>
      </trkpt>
      <trkpt lat="44.29963" lon="4.49281">
        <ele>181</ele>
        <time>2021-09-24T17:28:55Z</time>
      </trkpt>
      <trkpt lat="44.29955" lon="4.49272">
        <ele>182</ele>
        <time>2021-09-24T17:28:57Z</time>
      </trkpt>
      <trkpt lat="44.29942" lon="4.49233">
        <ele>186</ele>
        <time>2021-09-24T17:29:04Z</time>
      </trkpt>
      <trkpt lat="44.29897" lon="4.49161">
        <ele>192</ele>
        <time>2021-09-24T17:29:20Z</time>
      </trkpt>
      <trkpt lat="44.29889" lon="4.49129">
        <ele>194</ele>
        <time>2021-09-24T17:29:26Z</time>
      </trkpt>
      <trkpt lat="44.29887" lon="4.49071">
        <ele>199</ele>
        <time>2021-09-24T17:29:36Z</time>
      </trkpt>
      <trkpt lat="44.29894" lon="4.49037">
        <ele>202</ele>
        <time>2021-09-24T17:29:42Z</time>
      </trkpt>
      <trkpt lat="44.29914" lon="4.48985">
        <ele>208</ele>
        <time>2021-09-24T17:29:51Z</time>
      </trkpt>
      <trkpt lat="44.29965" lon="4.48879">
        <ele>214</ele>
        <time>2021-09-24T17:30:13Z</time>
      </trkpt>
      <trkpt lat="44.29997" lon="4.48771">
        <ele>217</ele>
        <time>2021-09-24T17:30:32Z</time>
      </trkpt>
      <trkpt lat="44.30022" lon="4.48641">
        <ele>231</ele>
        <time>2021-09-24T17:30:55Z</time>
      </trkpt>
      <trkpt lat="44.3003" lon="4.4856">
        <ele>242</ele>
        <time>2021-09-24T17:31:08Z</time>
      </trkpt>
      <trkpt lat="44.30051" lon="4.48477">
        <ele>249</ele>
        <time>2021-09-24T17:31:23Z</time>
      </trkpt>
      <trkpt lat="44.30057" lon="4.48388">
        <ele>255</ele>
        <time>2021-09-24T17:31:38Z</time>
      </trkpt>
      <trkpt lat="44.30058" lon="4.48307">
        <ele>254</ele>
        <time>2021-09-24T17:31:52Z</time>
      </trkpt>
      <trkpt lat="44.30029" lon="4.48134">
        <ele>255</ele>
        <time>2021-09-24T17:32:21Z</time>
      </trkpt>
      <trkpt lat="44.30017" lon="4.4808">
        <ele>256</ele>
        <time>2021-09-24T17:32:31Z</time>
      </trkpt>
      <trkpt lat="44.29978" lon="4.47956">
        <ele>257</ele>
        <time>2021-09-24T17:32:53Z</time>
      </trkpt>
      <trkpt lat="44.2996" lon="4.47884">
        <ele>258</ele>
        <time>2021-09-24T17:33:06Z</time>
      </trkpt>
      <trkpt lat="44.29923" lon="4.477">
        <ele>258</ele>
        <time>2021-09-24T17:33:38Z</time>
      </trkpt>
      <trkpt lat="44.29919" lon="4.47657">
        <ele>259</ele>
        <time>2021-09-24T17:33:45Z</time>
      </trkpt>
      <trkpt lat="44.29943" lon="4.47622">
        <ele>258</ele>
        <time>2021-09-24T17:33:53Z</time>
      </trkpt>
      <trkpt lat="44.29955" lon="4.47596">
        <ele>258</ele>
        <time>2021-09-24T17:33:59Z</time>
      </trkpt>
      <trkpt lat="44.29963" lon="4.47529">
        <ele>259</ele>
        <time>2021-09-24T17:34:10Z</time>
      </trkpt>
      <trkpt lat="44.29968" lon="4.47517">
        <ele>259</ele>
        <time>2021-09-24T17:34:12Z</time>
      </trkpt>
      <trkpt lat="44.29976" lon="4.47512">
        <ele>259</ele>
        <time>2021-09-24T17:34:14Z</time>
      </trkpt>
      <trkpt lat="44.30006" lon="4.47506">
        <ele>259</ele>
        <time>2021-09-24T17:34:21Z</time>
      </trkpt>
      <trkpt lat="44.30028" lon="4.47495">
        <ele>258</ele>
        <time>2021-09-24T17:34:27Z</time>
      </trkpt>
      <trkpt lat="44.30055" lon="4.47446">
        <ele>256</ele>
        <time>2021-09-24T17:34:37Z</time>
      </trkpt>
      <trkpt lat="44.30072" lon="4.47426">
        <ele>255</ele>
        <time>2021-09-24T17:34:42Z</time>
      </trkpt>
      <trkpt lat="44.30103" lon="4.47413">
        <ele>253</ele>
        <time>2021-09-24T17:34:50Z</time>
      </trkpt>
      <trkpt lat="44.3015" lon="4.47415">
        <ele>250</ele>
        <time>2021-09-24T17:35:01Z</time>
      </trkpt>
      <trkpt lat="44.30157" lon="4.47412">
        <ele>249</ele>
        <time>2021-09-24T17:35:03Z</time>
      </trkpt>
      <trkpt lat="44.30192" lon="4.47387">
        <ele>250</ele>
        <time>2021-09-24T17:35:12Z</time>
      </trkpt>
      <trkpt lat="44.30234" lon="4.47348">
        <ele>252</ele>
        <time>2021-09-24T17:35:24Z</time>
      </trkpt>
      <trkpt lat="44.30321" lon="4.47294">
        <ele>251</ele>
        <time>2021-09-24T17:35:46Z</time>
      </trkpt>
      <trkpt lat="44.30341" lon="4.47272">
        <ele>252</ele>
        <time>2021-09-24T17:35:52Z</time>
      </trkpt>
      <trkpt lat="44.30361" lon="4.47271">
        <ele>252</ele>
        <time>2021-09-24T17:35:56Z</time>
      </trkpt>
      <trkpt lat="44.3039" lon="4.47279">
        <ele>253</ele>
        <time>2021-09-24T17:36:03Z</time>
      </trkpt>
      <trkpt lat="44.30412" lon="4.4728">
        <ele>254</ele>
        <time>2021-09-24T17:36:09Z</time>
      </trkpt>
      <trkpt lat="44.30432" lon="4.47277">
        <ele>255</ele>
        <time>2021-09-24T17:36:13Z</time>
      </trkpt>
      <trkpt lat="44.30449" lon="4.47269">
        <ele>256</ele>
        <time>2021-09-24T17:36:17Z</time>
      </trkpt>
      <trkpt lat="44.30495" lon="4.47269">
        <ele>257</ele>
        <time>2021-09-24T17:36:28Z</time>
      </trkpt>
      <trkpt lat="44.3051" lon="4.47274">
        <ele>257</ele>
        <time>2021-09-24T17:36:32Z</time>
      </trkpt>
      <trkpt lat="44.30534" lon="4.47294">
        <ele>258</ele>
        <time>2021-09-24T17:36:38Z</time>
      </trkpt>
      <trkpt lat="44.30559" lon="4.47306">
        <ele>258</ele>
        <time>2021-09-24T17:36:44Z</time>
      </trkpt>
      <trkpt lat="44.30567" lon="4.47304">
        <ele>259</ele>
        <time>2021-09-24T17:36:46Z</time>
      </trkpt>
      <trkpt lat="44.30584" lon="4.47288">
        <ele>261</ele>
        <time>2021-09-24T17:36:51Z</time>
      </trkpt>
      <trkpt lat="44.30623" lon="4.47232">
        <ele>265</ele>
        <time>2021-09-24T17:37:04Z</time>
      </trkpt>
      <trkpt lat="44.30671" lon="4.47235">
        <ele>267</ele>
        <time>2021-09-24T17:37:15Z</time>
      </trkpt>
      <trkpt lat="44.30705" lon="4.47217">
        <ele>269</ele>
        <time>2021-09-24T17:37:24Z</time>
      </trkpt>
      <trkpt lat="44.30745" lon="4.4721">
        <ele>270</ele>
        <time>2021-09-24T17:37:33Z</time>
      </trkpt>
      <trkpt lat="44.30763" lon="4.47201">
        <ele>270</ele>
        <time>2021-09-24T17:37:38Z</time>
      </trkpt>
      <trkpt lat="44.30797" lon="4.47165">
        <ele>272</ele>
        <time>2021-09-24T17:37:48Z</time>
      </trkpt>
      <trkpt lat="44.30816" lon="4.47127">
        <ele>273</ele>
        <time>2021-09-24T17:37:55Z</time>
      </trkpt>
      <trkpt lat="44.30842" lon="4.47041">
        <ele>277</ele>
        <time>2021-09-24T17:38:11Z</time>
      </trkpt>
      <trkpt lat="44.30871" lon="4.46986">
        <ele>280</ele>
        <time>2021-09-24T17:38:23Z</time>
      </trkpt>
      <trkpt lat="44.30896" lon="4.46925">
        <ele>283</ele>
        <time>2021-09-24T17:38:34Z</time>
      </trkpt>
      <trkpt lat="44.30898" lon="4.46892">
        <ele>284</ele>
        <time>2021-09-24T17:38:40Z</time>
      </trkpt>
      <trkpt lat="44.30895" lon="4.46877">
        <ele>285</ele>
        <time>2021-09-24T17:38:42Z</time>
      </trkpt>
      <trkpt lat="44.30884" lon="4.46855">
        <ele>285</ele>
        <time>2021-09-24T17:38:47Z</time>
      </trkpt>
      <trkpt lat="44.3088" lon="4.46828">
        <ele>286</ele>
        <time>2021-09-24T17:38:51Z</time>
      </trkpt>
      <trkpt lat="44.30878" lon="4.46765">
        <ele>287</ele>
        <time>2021-09-24T17:39:02Z</time>
      </trkpt>
      <trkpt lat="44.30882" lon="4.46709">
        <ele>290</ele>
        <time>2021-09-24T17:39:11Z</time>
      </trkpt>
      <trkpt lat="44.30893" lon="4.46671">
        <ele>292</ele>
        <time>2021-09-24T17:39:18Z</time>
      </trkpt>
      <trkpt lat="44.30931" lon="4.46599">
        <ele>297</ele>
        <time>2021-09-24T17:39:33Z</time>
      </trkpt>
      <trkpt lat="44.30948" lon="4.46489">
        <ele>297</ele>
        <time>2021-09-24T17:39:52Z</time>
      </trkpt>
      <trkpt lat="44.30947" lon="4.46461">
        <ele>298</ele>
        <time>2021-09-24T17:39:57Z</time>
      </trkpt>
      <trkpt lat="44.30953" lon="4.46408">
        <ele>299</ele>
        <time>2021-09-24T17:40:06Z</time>
      </trkpt>
      <trkpt lat="44.30972" lon="4.46355">
        <ele>302</ele>
        <time>2021-09-24T17:40:16Z</time>
      </trkpt>
      <trkpt lat="44.3097" lon="4.46325">
        <ele>302</ele>
        <time>2021-09-24T17:40:21Z</time>
      </trkpt>
      <trkpt lat="44.30954" lon="4.4628">
        <ele>302</ele>
        <time>2021-09-24T17:40:29Z</time>
      </trkpt>
      <trkpt lat="44.30958" lon="4.46229">
        <ele>304</ele>
        <time>2021-09-24T17:40:38Z</time>
      </trkpt>
      <trkpt lat="44.30953" lon="4.4621">
        <ele>305</ele>
        <time>2021-09-24T17:40:41Z</time>
      </trkpt>
      <trkpt lat="44.30932" lon="4.46206">
        <ele>303</ele>
        <time>2021-09-24T17:40:46Z</time>
      </trkpt>
      <trkpt lat="44.30897" lon="4.46225">
        <ele>300</ele>
        <time>2021-09-24T17:40:55Z</time>
      </trkpt>
      <trkpt lat="44.30885" lon="4.46224">
        <ele>300</ele>
        <time>2021-09-24T17:40:57Z</time>
      </trkpt>
      <trkpt lat="44.30841" lon="4.46159">
        <ele>301</ele>
        <time>2021-09-24T17:41:12Z</time>
      </trkpt>
      <trkpt lat="44.30844" lon="4.46108">
        <ele>303</ele>
        <time>2021-09-24T17:41:21Z</time>
      </trkpt>
      <trkpt lat="44.30839" lon="4.46004">
        <ele>305</ele>
        <time>2021-09-24T17:41:38Z</time>
      </trkpt>
      <trkpt lat="44.30846" lon="4.45864">
        <ele>307</ele>
        <time>2021-09-24T17:42:02Z</time>
      </trkpt>
      <trkpt lat="44.30839" lon="4.45839">
        <ele>307</ele>
        <time>2021-09-24T17:42:06Z</time>
      </trkpt>
      <trkpt lat="44.30851" lon="4.45764">
        <ele>308</ele>
        <time>2021-09-24T17:42:19Z</time>
      </trkpt>
      <trkpt lat="44.30864" lon="4.45737">
        <ele>308</ele>
        <time>2021-09-24T17:42:25Z</time>
      </trkpt>
      <trkpt lat="44.30868" lon="4.4571">
        <ele>308</ele>
        <time>2021-09-24T17:42:29Z</time>
      </trkpt>
      <trkpt lat="44.30866" lon="4.45728">
        <ele>308</ele>
        <time>2021-09-24T17:42:32Z</time>
      </trkpt>
      <trkpt lat="44.30872" lon="4.45734">
        <ele>308</ele>
        <time>2021-09-24T17:42:34Z</time>
      </trkpt>
      <trkpt lat="44.30931" lon="4.4572">
        <ele>310</ele>
        <time>2021-09-24T17:42:48Z</time>
      </trkpt>
      <trkpt lat="44.30954" lon="4.45701">
        <ele>310</ele>
        <time>2021-09-24T17:42:54Z</time>
      </trkpt>
      <trkpt lat="44.30964" lon="4.45678">
        <ele>310</ele>
        <time>2021-09-24T17:42:59Z</time>
      </trkpt>
      <trkpt lat="44.30978" lon="4.45575">
        <ele>310</ele>
        <time>2021-09-24T17:43:16Z</time>
      </trkpt>
      <trkpt lat="44.30973" lon="4.45391">
        <ele>309</ele>
        <time>2021-09-24T17:43:47Z</time>
      </trkpt>
      <trkpt lat="44.30988" lon="4.45348">
        <ele>309</ele>
        <time>2021-09-24T17:43:55Z</time>
      </trkpt>
      <trkpt lat="44.30989" lon="4.45333">
        <ele>309</ele>
        <time>2021-09-24T17:43:58Z</time>
      </trkpt>
      <trkpt lat="44.30951" lon="4.45169">
        <ele>300</ele>
        <time>2021-09-24T17:44:26Z</time>
      </trkpt>
      <trkpt lat="44.30935" lon="4.45139">
        <ele>299</ele>
        <time>2021-09-24T17:44:33Z</time>
      </trkpt>
      <trkpt lat="44.30932" lon="4.45122">
        <ele>298</ele>
        <time>2021-09-24T17:44:36Z</time>
      </trkpt>
      <trkpt lat="44.30917" lon="4.45094">
        <ele>298</ele>
        <time>2021-09-24T17:44:41Z</time>
      </trkpt>
      <trkpt lat="44.3091" lon="4.4507">
        <ele>296</ele>
        <time>2021-09-24T17:44:46Z</time>
      </trkpt>
      <trkpt lat="44.30885" lon="4.44951">
        <ele>292</ele>
        <time>2021-09-24T17:45:06Z</time>
      </trkpt>
      <trkpt lat="44.3088" lon="4.44909">
        <ele>291</ele>
        <time>2021-09-24T17:45:14Z</time>
      </trkpt>
      <trkpt lat="44.30845" lon="4.44784">
        <ele>286</ele>
        <time>2021-09-24T17:45:36Z</time>
      </trkpt>
      <trkpt lat="44.30824" lon="4.44677">
        <ele>284</ele>
        <time>2021-09-24T17:45:55Z</time>
      </trkpt>
      <trkpt lat="44.30813" lon="4.44648">
        <ele>283</ele>
        <time>2021-09-24T17:46:00Z</time>
      </trkpt>
      <trkpt lat="44.30807" lon="4.44607">
        <ele>281</ele>
        <time>2021-09-24T17:46:07Z</time>
      </trkpt>
      <trkpt lat="44.30798" lon="4.4459">
        <ele>281</ele>
        <time>2021-09-24T17:46:11Z</time>
      </trkpt>
      <trkpt lat="44.30767" lon="4.44571">
        <ele>282</ele>
        <time>2021-09-24T17:46:18Z</time>
      </trkpt>
      <trkpt lat="44.30729" lon="4.4451">
        <ele>282</ele>
        <time>2021-09-24T17:46:32Z</time>
      </trkpt>
      <trkpt lat="44.30724" lon="4.44493">
        <ele>281</ele>
        <time>2021-09-24T17:46:35Z</time>
      </trkpt>
      <trkpt lat="44.30725" lon="4.44488">
        <ele>281</ele>
        <time>2021-09-24T17:46:36Z</time>
      </trkpt>
      <trkpt lat="44.30738" lon="4.44477">
        <ele>281</ele>
        <time>2021-09-24T17:46:39Z</time>
      </trkpt>
      <trkpt lat="44.30758" lon="4.44469">
        <ele>279</ele>
        <time>2021-09-24T17:46:44Z</time>
      </trkpt>
      <trkpt lat="44.30796" lon="4.4447">
        <ele>276</ele>
        <time>2021-09-24T17:46:53Z</time>
      </trkpt>
      <trkpt lat="44.30849" lon="4.44462">
        <ele>269</ele>
        <time>2021-09-24T17:47:06Z</time>
      </trkpt>
      <trkpt lat="44.309" lon="4.44469">
        <ele>262</ele>
        <time>2021-09-24T17:47:18Z</time>
      </trkpt>
      <trkpt lat="44.30946" lon="4.44459">
        <ele>257</ele>
        <time>2021-09-24T17:47:28Z</time>
      </trkpt>
      <trkpt lat="44.31" lon="4.44459">
        <ele>255</ele>
        <time>2021-09-24T17:47:41Z</time>
      </trkpt>
      <trkpt lat="44.31016" lon="4.44449">
        <ele>257</ele>
        <time>2021-09-24T17:47:45Z</time>
      </trkpt>
      <trkpt lat="44.31013" lon="4.44434">
        <ele>255</ele>
        <time>2021-09-24T17:47:48Z</time>
      </trkpt>
      <trkpt lat="44.30976" lon="4.44433">
        <ele>254</ele>
        <time>2021-09-24T17:47:56Z</time>
      </trkpt>
      <trkpt lat="44.30963" lon="4.44423">
        <ele>253</ele>
        <time>2021-09-24T17:48:00Z</time>
      </trkpt>
      <trkpt lat="44.3094" lon="4.44385">
        <ele>253</ele>
        <time>2021-09-24T17:48:08Z</time>
      </trkpt>
      <trkpt lat="44.3091" lon="4.44353">
        <ele>253</ele>
        <time>2021-09-24T17:48:17Z</time>
      </trkpt>
      <trkpt lat="44.30875" lon="4.44274">
        <ele>256</ele>
        <time>2021-09-24T17:48:33Z</time>
      </trkpt>
      <trkpt lat="44.30873" lon="4.44238">
        <ele>255</ele>
        <time>2021-09-24T17:48:39Z</time>
      </trkpt>
      <trkpt lat="44.30894" lon="4.44179">
        <ele>252</ele>
        <time>2021-09-24T17:48:50Z</time>
      </trkpt>
      <trkpt lat="44.30902" lon="4.44134">
        <ele>250</ele>
        <time>2021-09-24T17:48:57Z</time>
      </trkpt>
      <trkpt lat="44.30893" lon="4.44066">
        <ele>249</ele>
        <time>2021-09-24T17:49:09Z</time>
      </trkpt>
      <trkpt lat="44.30889" lon="4.4405">
        <ele>250</ele>
        <time>2021-09-24T17:49:12Z</time>
      </trkpt>
      <trkpt lat="44.3087" lon="4.44017">
        <ele>249</ele>
        <time>2021-09-24T17:49:19Z</time>
      </trkpt>
      <trkpt lat="44.3085" lon="4.43988">
        <ele>247</ele>
        <time>2021-09-24T17:49:26Z</time>
      </trkpt>
      <trkpt lat="44.30817" lon="4.43959">
        <ele>245</ele>
        <time>2021-09-24T17:49:35Z</time>
      </trkpt>
      <trkpt lat="44.30798" lon="4.4392">
        <ele>244</ele>
        <time>2021-09-24T17:49:43Z</time>
      </trkpt>
      <trkpt lat="44.308" lon="4.4391">
        <ele>244</ele>
        <time>2021-09-24T17:49:44Z</time>
      </trkpt>
      <trkpt lat="44.30826" lon="4.43873">
        <ele>248</ele>
        <time>2021-09-24T17:49:53Z</time>
      </trkpt>
      <trkpt lat="44.30834" lon="4.43842">
        <ele>250</ele>
        <time>2021-09-24T17:49:58Z</time>
      </trkpt>
      <trkpt lat="44.30843" lon="4.43771">
        <ele>252</ele>
        <time>2021-09-24T17:50:10Z</time>
      </trkpt>
      <trkpt lat="44.3085" lon="4.43751">
        <ele>252</ele>
        <time>2021-09-24T17:50:14Z</time>
      </trkpt>
      <trkpt lat="44.30883" lon="4.43716">
        <ele>256</ele>
        <time>2021-09-24T17:50:24Z</time>
      </trkpt>
      <trkpt lat="44.30901" lon="4.43708">
        <ele>256</ele>
        <time>2021-09-24T17:50:28Z</time>
      </trkpt>
      <trkpt lat="44.30984" lon="4.4375">
        <ele>255</ele>
        <time>2021-09-24T17:50:49Z</time>
      </trkpt>
      <trkpt lat="44.30995" lon="4.43752">
        <ele>255</ele>
        <time>2021-09-24T17:50:51Z</time>
      </trkpt>
      <trkpt lat="44.31011" lon="4.43749">
        <ele>256</ele>
        <time>2021-09-24T17:50:55Z</time>
      </trkpt>
      <trkpt lat="44.31048" lon="4.43725">
        <ele>263</ele>
        <time>2021-09-24T17:51:05Z</time>
      </trkpt>
      <trkpt lat="44.3106" lon="4.43722">
        <ele>264</ele>
        <time>2021-09-24T17:51:08Z</time>
      </trkpt>
      <trkpt lat="44.31082" lon="4.43726">
        <ele>265</ele>
        <time>2021-09-24T17:51:13Z</time>
      </trkpt>
      <trkpt lat="44.31119" lon="4.43744">
        <ele>264</ele>
        <time>2021-09-24T17:51:22Z</time>
      </trkpt>
      <trkpt lat="44.31155" lon="4.43752">
        <ele>264</ele>
        <time>2021-09-24T17:51:30Z</time>
      </trkpt>
      <trkpt lat="44.31192" lon="4.43752">
        <ele>267</ele>
        <time>2021-09-24T17:51:39Z</time>
      </trkpt>
      <trkpt lat="44.31213" lon="4.4374">
        <ele>269</ele>
        <time>2021-09-24T17:51:44Z</time>
      </trkpt>
      <trkpt lat="44.31198" lon="4.43749">
        <ele>267</ele>
        <time>2021-09-24T17:51:48Z</time>
      </trkpt>
      <trkpt lat="44.31176" lon="4.43755">
        <ele>266</ele>
        <time>2021-09-24T17:51:53Z</time>
      </trkpt>
      <trkpt lat="44.31142" lon="4.43755">
        <ele>264</ele>
        <time>2021-09-24T17:52:01Z</time>
      </trkpt>
      <trkpt lat="44.31117" lon="4.4375">
        <ele>263</ele>
        <time>2021-09-24T17:52:07Z</time>
      </trkpt>
      <trkpt lat="44.31096" lon="4.43736">
        <ele>264</ele>
        <time>2021-09-24T17:52:13Z</time>
      </trkpt>
      <trkpt lat="44.31061" lon="4.43725">
        <ele>263</ele>
        <time>2021-09-24T17:52:21Z</time>
      </trkpt>
      <trkpt lat="44.31047" lon="4.43729">
        <ele>262</ele>
        <time>2021-09-24T17:52:24Z</time>
      </trkpt>
      <trkpt lat="44.31013" lon="4.43751">
        <ele>256</ele>
        <time>2021-09-24T17:52:33Z</time>
      </trkpt>
      <trkpt lat="44.30993" lon="4.43753">
        <ele>255</ele>
        <time>2021-09-24T17:52:38Z</time>
      </trkpt>
      <trkpt lat="44.3094" lon="4.43729">
        <ele>255</ele>
        <time>2021-09-24T17:52:51Z</time>
      </trkpt>
      <trkpt lat="44.30914" lon="4.43712">
        <ele>255</ele>
        <time>2021-09-24T17:52:58Z</time>
      </trkpt>
      <trkpt lat="44.30903" lon="4.4371">
        <ele>255</ele>
        <time>2021-09-24T17:53:00Z</time>
      </trkpt>
      <trkpt lat="44.30888" lon="4.43714">
        <ele>256</ele>
        <time>2021-09-24T17:53:04Z</time>
      </trkpt>
      <trkpt lat="44.30853" lon="4.43744">
        <ele>253</ele>
        <time>2021-09-24T17:53:13Z</time>
      </trkpt>
      <trkpt lat="44.30843" lon="4.43759">
        <ele>252</ele>
        <time>2021-09-24T17:53:17Z</time>
      </trkpt>
      <trkpt lat="44.30831" lon="4.43858">
        <ele>249</ele>
        <time>2021-09-24T17:53:34Z</time>
      </trkpt>
      <trkpt lat="44.30821" lon="4.4388">
        <ele>248</ele>
        <time>2021-09-24T17:53:38Z</time>
      </trkpt>
      <trkpt lat="44.30791" lon="4.43916">
        <ele>243</ele>
        <time>2021-09-24T17:53:47Z</time>
      </trkpt>
      <trkpt lat="44.3077" lon="4.43898">
        <ele>245</ele>
        <time>2021-09-24T17:53:53Z</time>
      </trkpt>
      <trkpt lat="44.30727" lon="4.439">
        <ele>244</ele>
        <time>2021-09-24T17:54:03Z</time>
      </trkpt>
      <trkpt lat="44.30713" lon="4.43895">
        <ele>245</ele>
        <time>2021-09-24T17:54:06Z</time>
      </trkpt>
      <trkpt lat="44.30688" lon="4.43867">
        <ele>250</ele>
        <time>2021-09-24T17:54:14Z</time>
      </trkpt>
      <trkpt lat="44.30679" lon="4.43843">
        <ele>255</ele>
        <time>2021-09-24T17:54:18Z</time>
      </trkpt>
      <trkpt lat="44.30665" lon="4.43823">
        <ele>258</ele>
        <time>2021-09-24T17:54:23Z</time>
      </trkpt>
      <trkpt lat="44.30656" lon="4.43771">
        <ele>267</ele>
        <time>2021-09-24T17:54:32Z</time>
      </trkpt>
      <trkpt lat="44.30659" lon="4.43716">
        <ele>273</ele>
        <time>2021-09-24T17:54:41Z</time>
      </trkpt>
      <trkpt lat="44.30677" lon="4.4363">
        <ele>280</ele>
        <time>2021-09-24T17:54:56Z</time>
      </trkpt>
      <trkpt lat="44.30665" lon="4.43581">
        <ele>282</ele>
        <time>2021-09-24T17:55:05Z</time>
      </trkpt>
      <trkpt lat="44.30668" lon="4.43537">
        <ele>284</ele>
        <time>2021-09-24T17:55:12Z</time>
      </trkpt>
      <trkpt lat="44.3065" lon="4.43504">
        <ele>286</ele>
        <time>2021-09-24T17:55:19Z</time>
      </trkpt>
      <trkpt lat="44.30594" lon="4.43457">
        <ele>290</ele>
        <time>2021-09-24T17:55:34Z</time>
      </trkpt>
      <trkpt lat="44.3059" lon="4.43447">
        <ele>291</ele>
        <time>2021-09-24T17:55:36Z</time>
      </trkpt>
      <trkpt lat="44.30601" lon="4.43345">
        <ele>294</ele>
        <time>2021-09-24T17:55:53Z</time>
      </trkpt>
      <trkpt lat="44.30614" lon="4.43266">
        <ele>292</ele>
        <time>2021-09-24T17:56:07Z</time>
      </trkpt>
      <trkpt lat="44.30626" lon="4.43198">
        <ele>287</ele>
        <time>2021-09-24T17:56:19Z</time>
      </trkpt>
      <trkpt lat="44.3064" lon="4.4316">
        <ele>284</ele>
        <time>2021-09-24T17:56:26Z</time>
      </trkpt>
      <trkpt lat="44.30661" lon="4.43138">
        <ele>284</ele>
        <time>2021-09-24T17:56:32Z</time>
      </trkpt>
      <trkpt lat="44.30707" lon="4.4312">
        <ele>284</ele>
        <time>2021-09-24T17:56:43Z</time>
      </trkpt>
      <trkpt lat="44.30723" lon="4.43108">
        <ele>284</ele>
        <time>2021-09-24T17:56:47Z</time>
      </trkpt>
      <trkpt lat="44.30758" lon="4.43058">
        <ele>282</ele>
        <time>2021-09-24T17:56:59Z</time>
      </trkpt>
      <trkpt lat="44.30813" lon="4.42993">
        <ele>283</ele>
        <time>2021-09-24T17:57:16Z</time>
      </trkpt>
      <trkpt lat="44.30819" lon="4.42978">
        <ele>284</ele>
        <time>2021-09-24T17:57:19Z</time>
      </trkpt>
      <trkpt lat="44.30818" lon="4.42955">
        <ele>284</ele>
        <time>2021-09-24T17:57:23Z</time>
      </trkpt>
      <trkpt lat="44.30808" lon="4.42935">
        <ele>284</ele>
        <time>2021-09-24T17:57:27Z</time>
      </trkpt>
      <trkpt lat="44.308" lon="4.42929">
        <ele>284</ele>
        <time>2021-09-24T17:57:29Z</time>
      </trkpt>
      <trkpt lat="44.30784" lon="4.42925">
        <ele>283</ele>
        <time>2021-09-24T17:57:33Z</time>
      </trkpt>
      <trkpt lat="44.30722" lon="4.42925">
        <ele>280</ele>
        <time>2021-09-24T17:57:47Z</time>
      </trkpt>
      <trkpt lat="44.30616" lon="4.42887">
        <ele>279</ele>
        <time>2021-09-24T17:58:13Z</time>
      </trkpt>
      <trkpt lat="44.30585" lon="4.4287">
        <ele>280</ele>
        <time>2021-09-24T17:58:20Z</time>
      </trkpt>
      <trkpt lat="44.30556" lon="4.42827">
        <ele>284</ele>
        <time>2021-09-24T17:58:30Z</time>
      </trkpt>
      <trkpt lat="44.30551" lon="4.42812">
        <ele>285</ele>
        <time>2021-09-24T17:58:33Z</time>
      </trkpt>
      <trkpt lat="44.30545" lon="4.42753">
        <ele>287</ele>
        <time>2021-09-24T17:58:43Z</time>
      </trkpt>
      <trkpt lat="44.30559" lon="4.42686">
        <ele>289</ele>
        <time>2021-09-24T17:58:55Z</time>
      </trkpt>
      <trkpt lat="44.30531" lon="4.4257">
        <ele>287</ele>
        <time>2021-09-24T17:59:15Z</time>
      </trkpt>
      <trkpt lat="44.30515" lon="4.4253">
        <ele>285</ele>
        <time>2021-09-24T17:59:23Z</time>
      </trkpt>
      <trkpt lat="44.30497" lon="4.42468">
        <ele>282</ele>
        <time>2021-09-24T17:59:34Z</time>
      </trkpt>
      <trkpt lat="44.30436" lon="4.4236">
        <ele>278</ele>
        <time>2021-09-24T17:59:57Z</time>
      </trkpt>
      <trkpt lat="44.30441" lon="4.42318">
        <ele>276</ele>
        <time>2021-09-24T18:00:04Z</time>
      </trkpt>
      <trkpt lat="44.30408" lon="4.42253">
        <ele>274</ele>
        <time>2021-09-24T18:00:17Z</time>
      </trkpt>
      <trkpt lat="44.30386" lon="4.42191">
        <ele>274</ele>
        <time>2021-09-24T18:00:29Z</time>
      </trkpt>
      <trkpt lat="44.30369" lon="4.42159">
        <ele>274</ele>
        <time>2021-09-24T18:00:36Z</time>
      </trkpt>
      <trkpt lat="44.30331" lon="4.42027">
        <ele>267</ele>
        <time>2021-09-24T18:00:59Z</time>
      </trkpt>
      <trkpt lat="44.30303" lon="4.41965">
        <ele>264</ele>
        <time>2021-09-24T18:01:12Z</time>
      </trkpt>
      <trkpt lat="44.303" lon="4.41949">
        <ele>263</ele>
        <time>2021-09-24T18:01:14Z</time>
      </trkpt>
      <trkpt lat="44.30302" lon="4.419">
        <ele>262</ele>
        <time>2021-09-24T18:01:23Z</time>
      </trkpt>
      <trkpt lat="44.30294" lon="4.41855">
        <ele>263</ele>
        <time>2021-09-24T18:01:30Z</time>
      </trkpt>
      <trkpt lat="44.30206" lon="4.41632">
        <ele>266</ele>
        <time>2021-09-24T18:02:13Z</time>
      </trkpt>
      <trkpt lat="44.30176" lon="4.4152">
        <ele>266</ele>
        <time>2021-09-24T18:02:33Z</time>
      </trkpt>
      <trkpt lat="44.30211" lon="4.41498">
        <ele>268</ele>
        <time>2021-09-24T18:02:42Z</time>
      </trkpt>
      <trkpt lat="44.30293" lon="4.4147">
        <ele>269</ele>
        <time>2021-09-24T18:03:02Z</time>
      </trkpt>
      <trkpt lat="44.30311" lon="4.4147">
        <ele>270</ele>
        <time>2021-09-24T18:03:06Z</time>
      </trkpt>
      <trkpt lat="44.30324" lon="4.41476">
        <ele>270</ele>
        <time>2021-09-24T18:03:09Z</time>
      </trkpt>
      <trkpt lat="44.3036" lon="4.41515">
        <ele>273</ele>
        <time>2021-09-24T18:03:20Z</time>
      </trkpt>
      <trkpt lat="44.30414" lon="4.41547">
        <ele>276</ele>
        <time>2021-09-24T18:03:33Z</time>
      </trkpt>
      <trkpt lat="44.30462" lon="4.41586">
        <ele>279</ele>
        <time>2021-09-24T18:03:46Z</time>
      </trkpt>
      <trkpt lat="44.30474" lon="4.41593">
        <ele>279</ele>
        <time>2021-09-24T18:03:49Z</time>
      </trkpt>
      <trkpt lat="44.3049" lon="4.41594">
        <ele>279</ele>
        <time>2021-09-24T18:03:53Z</time>
      </trkpt>
      <trkpt lat="44.30522" lon="4.41584">
        <ele>279</ele>
        <time>2021-09-24T18:04:01Z</time>
      </trkpt>
      <trkpt lat="44.30584" lon="4.4154">
        <ele>277</ele>
        <time>2021-09-24T18:04:17Z</time>
      </trkpt>
      <trkpt lat="44.3063" lon="4.41556">
        <ele>278</ele>
        <time>2021-09-24T18:04:28Z</time>
      </trkpt>
      <trkpt lat="44.30688" lon="4.41528">
        <ele>278</ele>
        <time>2021-09-24T18:04:42Z</time>
      </trkpt>
      <trkpt lat="44.30723" lon="4.41506">
        <ele>277</ele>
        <time>2021-09-24T18:04:51Z</time>
      </trkpt>
      <trkpt lat="44.30785" lon="4.41499">
        <ele>273</ele>
        <time>2021-09-24T18:05:06Z</time>
      </trkpt>
      <trkpt lat="44.30817" lon="4.4145">
        <ele>267</ele>
        <time>2021-09-24T18:05:17Z</time>
      </trkpt>
      <trkpt lat="44.30867" lon="4.41444">
        <ele>265</ele>
        <time>2021-09-24T18:05:29Z</time>
      </trkpt>
      <trkpt lat="44.30873" lon="4.41438">
        <ele>265</ele>
        <time>2021-09-24T18:05:30Z</time>
      </trkpt>
      <trkpt lat="44.3091" lon="4.41377">
        <ele>267</ele>
        <time>2021-09-24T18:05:44Z</time>
      </trkpt>
      <trkpt lat="44.30946" lon="4.4129">
        <ele>270</ele>
        <time>2021-09-24T18:06:01Z</time>
      </trkpt>
      <trkpt lat="44.31055" lon="4.41192">
        <ele>276</ele>
        <time>2021-09-24T18:06:31Z</time>
      </trkpt>
      <trkpt lat="44.31082" lon="4.41181">
        <ele>277</ele>
        <time>2021-09-24T18:06:37Z</time>
      </trkpt>
      <trkpt lat="44.31119" lon="4.41184">
        <ele>279</ele>
        <time>2021-09-24T18:06:46Z</time>
      </trkpt>
      <trkpt lat="44.3119" lon="4.41178">
        <ele>282</ele>
        <time>2021-09-24T18:07:03Z</time>
      </trkpt>
      <trkpt lat="44.31241" lon="4.41143">
        <ele>284</ele>
        <time>2021-09-24T18:07:16Z</time>
      </trkpt>
      <trkpt lat="44.31275" lon="4.41102">
        <ele>285</ele>
        <time>2021-09-24T18:07:26Z</time>
      </trkpt>
      <trkpt lat="44.31304" lon="4.41002">
        <ele>283</ele>
        <time>2021-09-24T18:07:44Z</time>
      </trkpt>
      <trkpt lat="44.31308" lon="4.40994">
        <ele>283</ele>
        <time>2021-09-24T18:07:46Z</time>
      </trkpt>
      <trkpt lat="44.31315" lon="4.40993">
        <ele>283</ele>
        <time>2021-09-24T18:07:48Z</time>
      </trkpt>
      <trkpt lat="44.31336" lon="4.41037">
        <ele>283</ele>
        <time>2021-09-24T18:07:57Z</time>
      </trkpt>
      <trkpt lat="44.31351" lon="4.41058">
        <ele>285</ele>
        <time>2021-09-24T18:08:02Z</time>
      </trkpt>
      <trkpt lat="44.31369" lon="4.41075">
        <ele>286</ele>
        <time>2021-09-24T18:08:07Z</time>
      </trkpt>
      <trkpt lat="44.31388" lon="4.41084">
        <ele>286</ele>
        <time>2021-09-24T18:08:11Z</time>
      </trkpt>
      <trkpt lat="44.31409" lon="4.41089">
        <ele>287</ele>
        <time>2021-09-24T18:08:16Z</time>
      </trkpt>
      <trkpt lat="44.3144" lon="4.41089">
        <ele>287</ele>
        <time>2021-09-24T18:08:24Z</time>
      </trkpt>
      <trkpt lat="44.31469" lon="4.41083">
        <ele>288</ele>
        <time>2021-09-24T18:08:30Z</time>
      </trkpt>
      <trkpt lat="44.31632" lon="4.41083">
        <ele>294</ele>
        <time>2021-09-24T18:09:08Z</time>
      </trkpt>
      <trkpt lat="44.31691" lon="4.41105">
        <ele>296</ele>
        <time>2021-09-24T18:09:23Z</time>
      </trkpt>
      <trkpt lat="44.31733" lon="4.41137">
        <ele>298</ele>
        <time>2021-09-24T18:09:34Z</time>
      </trkpt>
      <trkpt lat="44.3175" lon="4.41136">
        <ele>299</ele>
        <time>2021-09-24T18:09:38Z</time>
      </trkpt>
      <trkpt lat="44.31767" lon="4.41147">
        <ele>300</ele>
        <time>2021-09-24T18:09:42Z</time>
      </trkpt>
      <trkpt lat="44.31781" lon="4.4115">
        <ele>301</ele>
        <time>2021-09-24T18:09:46Z</time>
      </trkpt>
      <trkpt lat="44.31815" lon="4.41145">
        <ele>303</ele>
        <time>2021-09-24T18:09:54Z</time>
      </trkpt>
      <trkpt lat="44.31822" lon="4.41147">
        <ele>303</ele>
        <time>2021-09-24T18:09:55Z</time>
      </trkpt>
      <trkpt lat="44.3183" lon="4.41171">
        <ele>304</ele>
        <time>2021-09-24T18:10:00Z</time>
      </trkpt>
      <trkpt lat="44.31839" lon="4.4118">
        <ele>304</ele>
        <time>2021-09-24T18:10:02Z</time>
      </trkpt>
      <trkpt lat="44.31843" lon="4.41193">
        <ele>304</ele>
        <time>2021-09-24T18:10:05Z</time>
      </trkpt>
      <trkpt lat="44.3184" lon="4.41217">
        <ele>303</ele>
        <time>2021-09-24T18:10:09Z</time>
      </trkpt>
      <trkpt lat="44.31846" lon="4.4125">
        <ele>303</ele>
        <time>2021-09-24T18:10:14Z</time>
      </trkpt>
      <trkpt lat="44.31848" lon="4.41293">
        <ele>304</ele>
        <time>2021-09-24T18:10:22Z</time>
      </trkpt>
      <trkpt lat="44.31836" lon="4.41359">
        <ele>305</ele>
        <time>2021-09-24T18:10:33Z</time>
      </trkpt>
      <trkpt lat="44.31838" lon="4.41378">
        <ele>305</ele>
        <time>2021-09-24T18:10:36Z</time>
      </trkpt>
      <trkpt lat="44.31858" lon="4.41388">
        <ele>307</ele>
        <time>2021-09-24T18:10:41Z</time>
      </trkpt>
      <trkpt lat="44.31908" lon="4.414">
        <ele>312</ele>
        <time>2021-09-24T18:10:53Z</time>
      </trkpt>
      <trkpt lat="44.31923" lon="4.41408">
        <ele>313</ele>
        <time>2021-09-24T18:10:57Z</time>
      </trkpt>
      <trkpt lat="44.31966" lon="4.414">
        <ele>315</ele>
        <time>2021-09-24T18:11:07Z</time>
      </trkpt>
      <trkpt lat="44.31975" lon="4.41402">
        <ele>315</ele>
        <time>2021-09-24T18:11:09Z</time>
      </trkpt>
      <trkpt lat="44.32006" lon="4.41426">
        <ele>316</ele>
        <time>2021-09-24T18:11:17Z</time>
      </trkpt>
      <trkpt lat="44.32024" lon="4.41429">
        <ele>316</ele>
        <time>2021-09-24T18:11:21Z</time>
      </trkpt>
      <trkpt lat="44.32041" lon="4.41439">
        <ele>316</ele>
        <time>2021-09-24T18:11:26Z</time>
      </trkpt>
      <trkpt lat="44.3205" lon="4.41438">
        <ele>316</ele>
        <time>2021-09-24T18:11:28Z</time>
      </trkpt>
      <trkpt lat="44.32084" lon="4.41461">
        <ele>316</ele>
        <time>2021-09-24T18:11:37Z</time>
      </trkpt>
      <trkpt lat="44.32129" lon="4.41467">
        <ele>316</ele>
        <time>2021-09-24T18:11:47Z</time>
      </trkpt>
      <trkpt lat="44.32146" lon="4.41506">
        <ele>315</ele>
        <time>2021-09-24T18:11:55Z</time>
      </trkpt>
      <trkpt lat="44.32138" lon="4.41524">
        <ele>315</ele>
        <time>2021-09-24T18:11:58Z</time>
      </trkpt>
      <trkpt lat="44.32093" lon="4.41589">
        <ele>312</ele>
        <time>2021-09-24T18:12:13Z</time>
      </trkpt>
      <trkpt lat="44.32085" lon="4.41607">
        <ele>312</ele>
        <time>2021-09-24T18:12:17Z</time>
      </trkpt>
      <trkpt lat="44.32077" lon="4.41649">
        <ele>311</ele>
        <time>2021-09-24T18:12:24Z</time>
      </trkpt>
      <trkpt lat="44.32048" lon="4.41726">
        <ele>308</ele>
        <time>2021-09-24T18:12:39Z</time>
      </trkpt>
      <trkpt lat="44.32016" lon="4.41773">
        <ele>305</ele>
        <time>2021-09-24T18:12:50Z</time>
      </trkpt>
      <trkpt lat="44.31959" lon="4.41811">
        <ele>304</ele>
        <time>2021-09-24T18:13:04Z</time>
      </trkpt>
      <trkpt lat="44.3192" lon="4.41819">
        <ele>305</ele>
        <time>2021-09-24T18:13:14Z</time>
      </trkpt>
      <trkpt lat="44.31836" lon="4.41823">
        <ele>304</ele>
        <time>2021-09-24T18:13:33Z</time>
      </trkpt>
      <trkpt lat="44.31775" lon="4.41832">
        <ele>303</ele>
        <time>2021-09-24T18:13:48Z</time>
      </trkpt>
      <trkpt lat="44.31747" lon="4.41844">
        <ele>303</ele>
        <time>2021-09-24T18:13:54Z</time>
      </trkpt>
      <trkpt lat="44.31706" lon="4.41877">
        <ele>303</ele>
        <time>2021-09-24T18:14:05Z</time>
      </trkpt>
      <trkpt lat="44.31648" lon="4.41894">
        <ele>303</ele>
        <time>2021-09-24T18:14:19Z</time>
      </trkpt>
      <trkpt lat="44.31643" lon="4.41915">
        <ele>304</ele>
        <time>2021-09-24T18:14:23Z</time>
      </trkpt>
      <trkpt lat="44.31664" lon="4.41954">
        <ele>307</ele>
        <time>2021-09-24T18:14:31Z</time>
      </trkpt>
      <trkpt lat="44.31653" lon="4.41973">
        <ele>307</ele>
        <time>2021-09-24T18:14:35Z</time>
      </trkpt>
      <trkpt lat="44.31647" lon="4.42008">
        <ele>308</ele>
        <time>2021-09-24T18:14:41Z</time>
      </trkpt>
      <trkpt lat="44.31635" lon="4.42009">
        <ele>307</ele>
        <time>2021-09-24T18:14:44Z</time>
      </trkpt>
      <trkpt lat="44.31554" lon="4.42076">
        <ele>301</ele>
        <time>2021-09-24T18:15:06Z</time>
      </trkpt>
      <trkpt lat="44.3153" lon="4.4211">
        <ele>298</ele>
        <time>2021-09-24T18:15:14Z</time>
      </trkpt>
      <trkpt lat="44.31477" lon="4.42161">
        <ele>294</ele>
        <time>2021-09-24T18:15:29Z</time>
      </trkpt>
      <trkpt lat="44.31464" lon="4.42193">
        <ele>295</ele>
        <time>2021-09-24T18:15:35Z</time>
      </trkpt>
      <trkpt lat="44.31449" lon="4.42207">
        <ele>296</ele>
        <time>2021-09-24T18:15:39Z</time>
      </trkpt>
      <trkpt lat="44.31442" lon="4.42227">
        <ele>296</ele>
        <time>2021-09-24T18:15:43Z</time>
      </trkpt>
      <trkpt lat="44.31443" lon="4.42258">
        <ele>298</ele>
        <time>2021-09-24T18:15:48Z</time>
      </trkpt>
      <trkpt lat="44.31466" lon="4.42296">
        <ele>300</ele>
        <time>2021-09-24T18:15:57Z</time>
      </trkpt>
      <trkpt lat="44.31474" lon="4.42337">
        <ele>303</ele>
        <time>2021-09-24T18:16:04Z</time>
      </trkpt>
      <trkpt lat="44.315" lon="4.42377">
        <ele>303</ele>
        <time>2021-09-24T18:16:13Z</time>
      </trkpt>
      <trkpt lat="44.31498" lon="4.42417">
        <ele>301</ele>
        <time>2021-09-24T18:16:19Z</time>
      </trkpt>
      <trkpt lat="44.31489" lon="4.42435">
        <ele>302</ele>
        <time>2021-09-24T18:16:23Z</time>
      </trkpt>
      <trkpt lat="44.31482" lon="4.42478">
        <ele>304</ele>
        <time>2021-09-24T18:16:31Z</time>
      </trkpt>
      <trkpt lat="44.31468" lon="4.42477">
        <ele>304</ele>
        <time>2021-09-24T18:16:34Z</time>
      </trkpt>
      <trkpt lat="44.31464" lon="4.4248">
        <ele>304</ele>
        <time>2021-09-24T18:16:35Z</time>
      </trkpt>
      <trkpt lat="44.31453" lon="4.42501">
        <ele>305</ele>
        <time>2021-09-24T18:16:39Z</time>
      </trkpt>
      <trkpt lat="44.31458" lon="4.4252">
        <ele>306</ele>
        <time>2021-09-24T18:16:43Z</time>
      </trkpt>
      <trkpt lat="44.31482" lon="4.42532">
        <ele>307</ele>
        <time>2021-09-24T18:16:49Z</time>
      </trkpt>
      <trkpt lat="44.31482" lon="4.42535">
        <ele>307</ele>
        <time>2021-09-24T18:16:49Z</time>
      </trkpt>
      <trkpt lat="44.31421" lon="4.42661">
        <ele>308</ele>
        <time>2021-09-24T18:17:14Z</time>
      </trkpt>
      <trkpt lat="44.31425" lon="4.42721">
        <ele>308</ele>
        <time>2021-09-24T18:17:25Z</time>
      </trkpt>
      <trkpt lat="44.31403" lon="4.42783">
        <ele>308</ele>
        <time>2021-09-24T18:17:36Z</time>
      </trkpt>
      <trkpt lat="44.31394" lon="4.42831">
        <ele>309</ele>
        <time>2021-09-24T18:17:44Z</time>
      </trkpt>
      <trkpt lat="44.31373" lon="4.42894">
        <ele>308</ele>
        <time>2021-09-24T18:17:56Z</time>
      </trkpt>
      <trkpt lat="44.31369" lon="4.42952">
        <ele>308</ele>
        <time>2021-09-24T18:18:06Z</time>
      </trkpt>
      <trkpt lat="44.31349" lon="4.43024">
        <ele>308</ele>
        <time>2021-09-24T18:18:19Z</time>
      </trkpt>
      <trkpt lat="44.31336" lon="4.43098">
        <ele>310</ele>
        <time>2021-09-24T18:18:31Z</time>
      </trkpt>
      <trkpt lat="44.3133" lon="4.4311">
        <ele>310</ele>
        <time>2021-09-24T18:18:34Z</time>
      </trkpt>
      <trkpt lat="44.31287" lon="4.43144">
        <ele>308</ele>
        <time>2021-09-24T18:18:45Z</time>
      </trkpt>
      <trkpt lat="44.31263" lon="4.43178">
        <ele>307</ele>
        <time>2021-09-24T18:18:53Z</time>
      </trkpt>
      <trkpt lat="44.31261" lon="4.43176">
        <ele>307</ele>
        <time>2021-09-24T18:18:54Z</time>
      </trkpt>
      <trkpt lat="44.31273" lon="4.43165">
        <ele>308</ele>
        <time>2021-09-24T18:18:57Z</time>
      </trkpt>
      <trkpt lat="44.31275" lon="4.43173">
        <ele>308</ele>
        <time>2021-09-24T18:18:59Z</time>
      </trkpt>
      <trkpt lat="44.31309" lon="4.43195">
        <ele>308</ele>
        <time>2021-09-24T18:19:07Z</time>
      </trkpt>
      <trkpt lat="44.31331" lon="4.43202">
        <ele>309</ele>
        <time>2021-09-24T18:19:13Z</time>
      </trkpt>
      <trkpt lat="44.31369" lon="4.4319">
        <ele>310</ele>
        <time>2021-09-24T18:19:22Z</time>
      </trkpt>
      <trkpt lat="44.31382" lon="4.4318">
        <ele>310</ele>
        <time>2021-09-24T18:19:25Z</time>
      </trkpt>
      <trkpt lat="44.3145" lon="4.43148">
        <ele>312</ele>
        <time>2021-09-24T18:19:42Z</time>
      </trkpt>
      <trkpt lat="44.31556" lon="4.4313">
        <ele>314</ele>
        <time>2021-09-24T18:20:07Z</time>
      </trkpt>
      <trkpt lat="44.31572" lon="4.43123">
        <ele>315</ele>
        <time>2021-09-24T18:20:11Z</time>
      </trkpt>
      <trkpt lat="44.31629" lon="4.4311">
        <ele>318</ele>
        <time>2021-09-24T18:20:24Z</time>
      </trkpt>
      <trkpt lat="44.31655" lon="4.43097">
        <ele>320</ele>
        <time>2021-09-24T18:20:31Z</time>
      </trkpt>
      <trkpt lat="44.31695" lon="4.43056">
        <ele>323</ele>
        <time>2021-09-24T18:20:42Z</time>
      </trkpt>
      <trkpt lat="44.31722" lon="4.43038">
        <ele>325</ele>
        <time>2021-09-24T18:20:49Z</time>
      </trkpt>
      <trkpt lat="44.3174" lon="4.43017">
        <ele>327</ele>
        <time>2021-09-24T18:20:55Z</time>
      </trkpt>
      <trkpt lat="44.31769" lon="4.42997">
        <ele>329</ele>
        <time>2021-09-24T18:21:02Z</time>
      </trkpt>
      <trkpt lat="44.31782" lon="4.42993">
        <ele>329</ele>
        <time>2021-09-24T18:21:05Z</time>
      </trkpt>
      <trkpt lat="44.31814" lon="4.42995">
        <ele>330</ele>
        <time>2021-09-24T18:21:13Z</time>
      </trkpt>
      <trkpt lat="44.31895" lon="4.4299">
        <ele>335</ele>
        <time>2021-09-24T18:21:32Z</time>
      </trkpt>
      <trkpt lat="44.31935" lon="4.43">
        <ele>338</ele>
        <time>2021-09-24T18:21:41Z</time>
      </trkpt>
      <trkpt lat="44.31979" lon="4.43027">
        <ele>342</ele>
        <time>2021-09-24T18:21:53Z</time>
      </trkpt>
      <trkpt lat="44.32007" lon="4.43057">
        <ele>346</ele>
        <time>2021-09-24T18:22:01Z</time>
      </trkpt>
      <trkpt lat="44.32051" lon="4.43086">
        <ele>350</ele>
        <time>2021-09-24T18:22:12Z</time>
      </trkpt>
      <trkpt lat="44.32065" lon="4.43091">
        <ele>351</ele>
        <time>2021-09-24T18:22:16Z</time>
      </trkpt>
      <trkpt lat="44.321" lon="4.43086">
        <ele>353</ele>
        <time>2021-09-24T18:22:24Z</time>
      </trkpt>
      <trkpt lat="44.32115" lon="4.43072">
        <ele>353</ele>
        <time>2021-09-24T18:22:28Z</time>
      </trkpt>
      <trkpt lat="44.32142" lon="4.43015">
        <ele>357</ele>
        <time>2021-09-24T18:22:39Z</time>
      </trkpt>
      <trkpt lat="44.32199" lon="4.42963">
        <ele>361</ele>
        <time>2021-09-24T18:22:55Z</time>
      </trkpt>
      <trkpt lat="44.32211" lon="4.42956">
        <ele>362</ele>
        <time>2021-09-24T18:22:58Z</time>
      </trkpt>
      <trkpt lat="44.32229" lon="4.42957">
        <ele>363</ele>
        <time>2021-09-24T18:23:03Z</time>
      </trkpt>
      <trkpt lat="44.32261" lon="4.42947">
        <ele>366</ele>
        <time>2021-09-24T18:23:10Z</time>
      </trkpt>
      <trkpt lat="44.32304" lon="4.42912">
        <ele>370</ele>
        <time>2021-09-24T18:23:22Z</time>
      </trkpt>
      <trkpt lat="44.32332" lon="4.42896">
        <ele>372</ele>
        <time>2021-09-24T18:23:29Z</time>
      </trkpt>
      <trkpt lat="44.32347" lon="4.4288">
        <ele>373</ele>
        <time>2021-09-24T18:23:33Z</time>
      </trkpt>
      <trkpt lat="44.32362" lon="4.42874">
        <ele>374</ele>
        <time>2021-09-24T18:23:37Z</time>
      </trkpt>
      <trkpt lat="44.32392" lon="4.42874">
        <ele>377</ele>
        <time>2021-09-24T18:23:44Z</time>
      </trkpt>
      <trkpt lat="44.32421" lon="4.42867">
        <ele>379</ele>
        <time>2021-09-24T18:23:51Z</time>
      </trkpt>
      <trkpt lat="44.32439" lon="4.42867">
        <ele>380</ele>
        <time>2021-09-24T18:23:55Z</time>
      </trkpt>
      <trkpt lat="44.32465" lon="4.42889">
        <ele>381</ele>
        <time>2021-09-24T18:24:02Z</time>
      </trkpt>
      <trkpt lat="44.32501" lon="4.42903">
        <ele>384</ele>
        <time>2021-09-24T18:24:11Z</time>
      </trkpt>
      <trkpt lat="44.32567" lon="4.42919">
        <ele>386</ele>
        <time>2021-09-24T18:24:27Z</time>
      </trkpt>
      <trkpt lat="44.326" lon="4.42934">
        <ele>386</ele>
        <time>2021-09-24T18:24:35Z</time>
      </trkpt>
      <trkpt lat="44.32616" lon="4.4299">
        <ele>386</ele>
        <time>2021-09-24T18:24:45Z</time>
      </trkpt>
      <trkpt lat="44.32621" lon="4.43016">
        <ele>386</ele>
        <time>2021-09-24T18:24:49Z</time>
      </trkpt>
      <trkpt lat="44.3262" lon="4.43035">
        <ele>386</ele>
        <time>2021-09-24T18:24:52Z</time>
      </trkpt>
      <trkpt lat="44.32638" lon="4.43119">
        <ele>386</ele>
        <time>2021-09-24T18:25:07Z</time>
      </trkpt>
      <trkpt lat="44.32634" lon="4.4316">
        <ele>386</ele>
        <time>2021-09-24T18:25:14Z</time>
      </trkpt>
      <trkpt lat="44.32609" lon="4.43226">
        <ele>387</ele>
        <time>2021-09-24T18:25:26Z</time>
      </trkpt>
      <trkpt lat="44.32605" lon="4.43276">
        <ele>387</ele>
        <time>2021-09-24T18:25:35Z</time>
      </trkpt>
      <trkpt lat="44.32592" lon="4.43294">
        <ele>386</ele>
        <time>2021-09-24T18:25:39Z</time>
      </trkpt>
      <trkpt lat="44.32588" lon="4.43307">
        <ele>386</ele>
        <time>2021-09-24T18:25:41Z</time>
      </trkpt>
      <trkpt lat="44.32585" lon="4.43333">
        <ele>386</ele>
        <time>2021-09-24T18:25:46Z</time>
      </trkpt>
      <trkpt lat="44.32589" lon="4.43366">
        <ele>385</ele>
        <time>2021-09-24T18:25:51Z</time>
      </trkpt>
      <trkpt lat="44.32586" lon="4.4338">
        <ele>385</ele>
        <time>2021-09-24T18:25:54Z</time>
      </trkpt>
      <trkpt lat="44.32576" lon="4.43397">
        <ele>384</ele>
        <time>2021-09-24T18:25:58Z</time>
      </trkpt>
      <trkpt lat="44.32573" lon="4.43414">
        <ele>383</ele>
        <time>2021-09-24T18:26:01Z</time>
      </trkpt>
      <trkpt lat="44.32604" lon="4.43484">
        <ele>383</ele>
        <time>2021-09-24T18:26:14Z</time>
      </trkpt>
      <trkpt lat="44.326" lon="4.43521">
        <ele>382</ele>
        <time>2021-09-24T18:26:21Z</time>
      </trkpt>
      <trkpt lat="44.32627" lon="4.43553">
        <ele>383</ele>
        <time>2021-09-24T18:26:29Z</time>
      </trkpt>
      <trkpt lat="44.3264" lon="4.43578">
        <ele>384</ele>
        <time>2021-09-24T18:26:34Z</time>
      </trkpt>
      <trkpt lat="44.32644" lon="4.43681">
        <ele>387</ele>
        <time>2021-09-24T18:26:51Z</time>
      </trkpt>
      <trkpt lat="44.32631" lon="4.43799">
        <ele>389</ele>
        <time>2021-09-24T18:27:11Z</time>
      </trkpt>
      <trkpt lat="44.32629" lon="4.43873">
        <ele>387</ele>
        <time>2021-09-24T18:27:23Z</time>
      </trkpt>
      <trkpt lat="44.32621" lon="4.43931">
        <ele>383</ele>
        <time>2021-09-24T18:27:33Z</time>
      </trkpt>
      <trkpt lat="44.326" lon="4.44001">
        <ele>378</ele>
        <time>2021-09-24T18:27:46Z</time>
      </trkpt>
      <trkpt lat="44.32594" lon="4.44008">
        <ele>377</ele>
        <time>2021-09-24T18:27:48Z</time>
      </trkpt>
      <trkpt lat="44.32589" lon="4.44002">
        <ele>378</ele>
        <time>2021-09-24T18:27:49Z</time>
      </trkpt>
      <trkpt lat="44.32594" lon="4.43988">
        <ele>379</ele>
        <time>2021-09-24T18:27:52Z</time>
      </trkpt>
      <trkpt lat="44.32611" lon="4.43993">
        <ele>379</ele>
        <time>2021-09-24T18:27:56Z</time>
      </trkpt>
      <trkpt lat="44.32614" lon="4.44008">
        <ele>378</ele>
        <time>2021-09-24T18:27:59Z</time>
      </trkpt>
      <trkpt lat="44.32604" lon="4.44087">
        <ele>371</ele>
        <time>2021-09-24T18:28:12Z</time>
      </trkpt>
      <trkpt lat="44.326" lon="4.44214">
        <ele>369</ele>
        <time>2021-09-24T18:28:33Z</time>
      </trkpt>
      <trkpt lat="44.32574" lon="4.44366">
        <ele>370</ele>
        <time>2021-09-24T18:28:59Z</time>
      </trkpt>
      <trkpt lat="44.32569" lon="4.44466">
        <ele>368</ele>
        <time>2021-09-24T18:29:16Z</time>
      </trkpt>
      <trkpt lat="44.32573" lon="4.44474">
        <ele>369</ele>
        <time>2021-09-24T18:29:18Z</time>
      </trkpt>
      <trkpt lat="44.32635" lon="4.445">
        <ele>372</ele>
        <time>2021-09-24T18:29:33Z</time>
      </trkpt>
      <trkpt lat="44.32697" lon="4.44499">
        <ele>374</ele>
        <time>2021-09-24T18:29:47Z</time>
      </trkpt>
      <trkpt lat="44.32753" lon="4.44523">
        <ele>375</ele>
        <time>2021-09-24T18:30:01Z</time>
      </trkpt>
      <trkpt lat="44.3277" lon="4.4454">
        <ele>376</ele>
        <time>2021-09-24T18:30:06Z</time>
      </trkpt>
      <trkpt lat="44.32773" lon="4.44569">
        <ele>376</ele>
        <time>2021-09-24T18:30:11Z</time>
      </trkpt>
      <trkpt lat="44.32787" lon="4.44597">
        <ele>376</ele>
        <time>2021-09-24T18:30:17Z</time>
      </trkpt>
      <trkpt lat="44.32798" lon="4.44607">
        <ele>377</ele>
        <time>2021-09-24T18:30:20Z</time>
      </trkpt>
      <trkpt lat="44.32806" lon="4.44609">
        <ele>377</ele>
        <time>2021-09-24T18:30:22Z</time>
      </trkpt>
      <trkpt lat="44.32862" lon="4.44611">
        <ele>379</ele>
        <time>2021-09-24T18:30:35Z</time>
      </trkpt>
      <trkpt lat="44.3289" lon="4.44606">
        <ele>379</ele>
        <time>2021-09-24T18:30:41Z</time>
      </trkpt>
      <trkpt lat="44.32938" lon="4.44578">
        <ele>379</ele>
        <time>2021-09-24T18:30:53Z</time>
      </trkpt>
      <trkpt lat="44.32974" lon="4.44566">
        <ele>379</ele>
        <time>2021-09-24T18:31:02Z</time>
      </trkpt>
      <trkpt lat="44.32986" lon="4.44571">
        <ele>379</ele>
        <time>2021-09-24T18:31:05Z</time>
      </trkpt>
      <trkpt lat="44.3302" lon="4.44613">
        <ele>377</ele>
        <time>2021-09-24T18:31:16Z</time>
      </trkpt>
      <trkpt lat="44.33035" lon="4.44623">
        <ele>376</ele>
        <time>2021-09-24T18:31:19Z</time>
      </trkpt>
      <trkpt lat="44.33067" lon="4.44616">
        <ele>376</ele>
        <time>2021-09-24T18:31:27Z</time>
      </trkpt>
      <trkpt lat="44.33101" lon="4.44619">
        <ele>375</ele>
        <time>2021-09-24T18:31:35Z</time>
      </trkpt>
      <trkpt lat="44.33137" lon="4.44613">
        <ele>375</ele>
        <time>2021-09-24T18:31:43Z</time>
      </trkpt>
      <trkpt lat="44.33178" lon="4.44592">
        <ele>375</ele>
        <time>2021-09-24T18:31:54Z</time>
      </trkpt>
      <trkpt lat="44.33214" lon="4.44602">
        <ele>376</ele>
        <time>2021-09-24T18:32:02Z</time>
      </trkpt>
      <trkpt lat="44.33231" lon="4.44627">
        <ele>376</ele>
        <time>2021-09-24T18:32:08Z</time>
      </trkpt>
      <trkpt lat="44.33236" lon="4.4466">
        <ele>376</ele>
        <time>2021-09-24T18:32:14Z</time>
      </trkpt>
      <trkpt lat="44.33248" lon="4.44679">
        <ele>376</ele>
        <time>2021-09-24T18:32:18Z</time>
      </trkpt>
      <trkpt lat="44.33272" lon="4.44735">
        <ele>378</ele>
        <time>2021-09-24T18:32:29Z</time>
      </trkpt>
      <trkpt lat="44.33336" lon="4.44747">
        <ele>382</ele>
        <time>2021-09-24T18:32:44Z</time>
      </trkpt>
      <trkpt lat="44.33357" lon="4.44758">
        <ele>383</ele>
        <time>2021-09-24T18:32:49Z</time>
      </trkpt>
      <trkpt lat="44.33363" lon="4.44766">
        <ele>384</ele>
        <time>2021-09-24T18:32:51Z</time>
      </trkpt>
      <trkpt lat="44.33367" lon="4.44907">
        <ele>385</ele>
        <time>2021-09-24T18:33:15Z</time>
      </trkpt>
      <trkpt lat="44.3338" lon="4.4495">
        <ele>387</ele>
        <time>2021-09-24T18:33:22Z</time>
      </trkpt>
      <trkpt lat="44.33398" lon="4.4498">
        <ele>389</ele>
        <time>2021-09-24T18:33:29Z</time>
      </trkpt>
      <trkpt lat="44.33417" lon="4.45002">
        <ele>390</ele>
        <time>2021-09-24T18:33:35Z</time>
      </trkpt>
      <trkpt lat="44.33423" lon="4.45022">
        <ele>390</ele>
        <time>2021-09-24T18:33:38Z</time>
      </trkpt>
      <trkpt lat="44.33412" lon="4.45056">
        <ele>391</ele>
        <time>2021-09-24T18:33:44Z</time>
      </trkpt>
      <trkpt lat="44.33407" lon="4.45136">
        <ele>392</ele>
        <time>2021-09-24T18:33:58Z</time>
      </trkpt>
      <trkpt lat="44.33387" lon="4.45219">
        <ele>394</ele>
        <time>2021-09-24T18:34:13Z</time>
      </trkpt>
      <trkpt lat="44.33382" lon="4.45274">
        <ele>394</ele>
        <time>2021-09-24T18:34:22Z</time>
      </trkpt>
      <trkpt lat="44.33371" lon="4.45321">
        <ele>395</ele>
        <time>2021-09-24T18:34:30Z</time>
      </trkpt>
      <trkpt lat="44.33338" lon="4.45397">
        <ele>393</ele>
        <time>2021-09-24T18:34:45Z</time>
      </trkpt>
      <trkpt lat="44.33324" lon="4.45443">
        <ele>391</ele>
        <time>2021-09-24T18:34:53Z</time>
      </trkpt>
      <trkpt lat="44.33312" lon="4.45463">
        <ele>391</ele>
        <time>2021-09-24T18:34:58Z</time>
      </trkpt>
      <trkpt lat="44.33282" lon="4.45505">
        <ele>390</ele>
        <time>2021-09-24T18:35:08Z</time>
      </trkpt>
      <trkpt lat="44.3326" lon="4.45525">
        <ele>392</ele>
        <time>2021-09-24T18:35:14Z</time>
      </trkpt>
      <trkpt lat="44.33242" lon="4.4555">
        <ele>392</ele>
        <time>2021-09-24T18:35:20Z</time>
      </trkpt>
      <trkpt lat="44.33227" lon="4.4556">
        <ele>393</ele>
        <time>2021-09-24T18:35:23Z</time>
      </trkpt>
      <trkpt lat="44.3321" lon="4.45592">
        <ele>393</ele>
        <time>2021-09-24T18:35:30Z</time>
      </trkpt>
      <trkpt lat="44.33177" lon="4.45639">
        <ele>393</ele>
        <time>2021-09-24T18:35:41Z</time>
      </trkpt>
      <trkpt lat="44.33114" lon="4.45717">
        <ele>393</ele>
        <time>2021-09-24T18:36:01Z</time>
      </trkpt>
      <trkpt lat="44.33009" lon="4.45812">
        <ele>396</ele>
        <time>2021-09-24T18:36:30Z</time>
      </trkpt>
      <trkpt lat="44.3299" lon="4.45822">
        <ele>396</ele>
        <time>2021-09-24T18:36:35Z</time>
      </trkpt>
      <trkpt lat="44.3294" lon="4.45838">
        <ele>398</ele>
        <time>2021-09-24T18:36:47Z</time>
      </trkpt>
      <trkpt lat="44.32867" lon="4.45888">
        <ele>401</ele>
        <time>2021-09-24T18:37:06Z</time>
      </trkpt>
      <trkpt lat="44.32827" lon="4.45936">
        <ele>403</ele>
        <time>2021-09-24T18:37:18Z</time>
      </trkpt>
      <trkpt lat="44.3281" lon="4.45973">
        <ele>403</ele>
        <time>2021-09-24T18:37:25Z</time>
      </trkpt>
      <trkpt lat="44.32787" lon="4.46061">
        <ele>403</ele>
        <time>2021-09-24T18:37:41Z</time>
      </trkpt>
      <trkpt lat="44.32779" lon="4.46123">
        <ele>402</ele>
        <time>2021-09-24T18:37:51Z</time>
      </trkpt>
      <trkpt lat="44.32771" lon="4.46242">
        <ele>402</ele>
        <time>2021-09-24T18:38:11Z</time>
      </trkpt>
      <trkpt lat="44.32772" lon="4.46336">
        <ele>402</ele>
        <time>2021-09-24T18:38:27Z</time>
      </trkpt>
      <trkpt lat="44.32766" lon="4.46408">
        <ele>400</ele>
        <time>2021-09-24T18:38:39Z</time>
      </trkpt>
      <trkpt lat="44.32771" lon="4.46487">
        <ele>399</ele>
        <time>2021-09-24T18:38:53Z</time>
      </trkpt>
      <trkpt lat="44.32819" lon="4.46664">
        <ele>391</ele>
        <time>2021-09-24T18:39:24Z</time>
      </trkpt>
      <trkpt lat="44.32832" lon="4.46753">
        <ele>389</ele>
        <time>2021-09-24T18:39:39Z</time>
      </trkpt>
      <trkpt lat="44.32814" lon="4.46851">
        <ele>388</ele>
        <time>2021-09-24T18:39:56Z</time>
      </trkpt>
      <trkpt lat="44.32818" lon="4.46952">
        <ele>390</ele>
        <time>2021-09-24T18:40:13Z</time>
      </trkpt>
      <trkpt lat="44.32816" lon="4.47054">
        <ele>391</ele>
        <time>2021-09-24T18:40:30Z</time>
      </trkpt>
      <trkpt lat="44.32812" lon="4.47091">
        <ele>391</ele>
        <time>2021-09-24T18:40:36Z</time>
      </trkpt>
      <trkpt lat="44.32793" lon="4.47176">
        <ele>390</ele>
        <time>2021-09-24T18:40:51Z</time>
      </trkpt>
      <trkpt lat="44.32793" lon="4.4721">
        <ele>390</ele>
        <time>2021-09-24T18:40:57Z</time>
      </trkpt>
      <trkpt lat="44.32799" lon="4.47254">
        <ele>391</ele>
        <time>2021-09-24T18:41:04Z</time>
      </trkpt>
      <trkpt lat="44.32796" lon="4.47282">
        <ele>392</ele>
        <time>2021-09-24T18:41:09Z</time>
      </trkpt>
      <trkpt lat="44.32717" lon="4.47375">
        <ele>393</ele>
        <time>2021-09-24T18:41:33Z</time>
      </trkpt>
      <trkpt lat="44.32675" lon="4.47444">
        <ele>393</ele>
        <time>2021-09-24T18:41:48Z</time>
      </trkpt>
      <trkpt lat="44.32602" lon="4.47603">
        <ele>390</ele>
        <time>2021-09-24T18:42:20Z</time>
      </trkpt>
      <trkpt lat="44.32586" lon="4.47652">
        <ele>390</ele>
        <time>2021-09-24T18:42:29Z</time>
      </trkpt>
      <trkpt lat="44.32556" lon="4.47707">
        <ele>390</ele>
        <time>2021-09-24T18:42:41Z</time>
      </trkpt>
      <trkpt lat="44.32515" lon="4.47925">
        <ele>385</ele>
        <time>2021-09-24T18:43:18Z</time>
      </trkpt>
      <trkpt lat="44.32443" lon="4.48037">
        <ele>378</ele>
        <time>2021-09-24T18:43:43Z</time>
      </trkpt>
      <trkpt lat="44.32403" lon="4.48107">
        <ele>372</ele>
        <time>2021-09-24T18:43:58Z</time>
      </trkpt>
      <trkpt lat="44.32351" lon="4.48158">
        <ele>367</ele>
        <time>2021-09-24T18:44:13Z</time>
      </trkpt>
      <trkpt lat="44.32333" lon="4.48184">
        <ele>366</ele>
        <time>2021-09-24T18:44:19Z</time>
      </trkpt>
      <trkpt lat="44.3229" lon="4.48314">
        <ele>361</ele>
        <time>2021-09-24T18:44:43Z</time>
      </trkpt>
      <trkpt lat="44.32281" lon="4.48329">
        <ele>361</ele>
        <time>2021-09-24T18:44:46Z</time>
      </trkpt>
      <trkpt lat="44.3225" lon="4.48353">
        <ele>359</ele>
        <time>2021-09-24T18:44:55Z</time>
      </trkpt>
      <trkpt lat="44.32239" lon="4.4837">
        <ele>359</ele>
        <time>2021-09-24T18:44:59Z</time>
      </trkpt>
      <trkpt lat="44.32216" lon="4.48445">
        <ele>360</ele>
        <time>2021-09-24T18:45:12Z</time>
      </trkpt>
      <trkpt lat="44.32191" lon="4.48508">
        <ele>360</ele>
        <time>2021-09-24T18:45:24Z</time>
      </trkpt>
      <trkpt lat="44.32147" lon="4.48578">
        <ele>360</ele>
        <time>2021-09-24T18:45:40Z</time>
      </trkpt>
      <trkpt lat="44.32123" lon="4.48608">
        <ele>360</ele>
        <time>2021-09-24T18:45:47Z</time>
      </trkpt>
      <trkpt lat="44.3209" lon="4.48716">
        <ele>356</ele>
        <time>2021-09-24T18:46:07Z</time>
      </trkpt>
      <trkpt lat="44.32038" lon="4.48813">
        <ele>356</ele>
        <time>2021-09-24T18:46:27Z</time>
      </trkpt>
      <trkpt lat="44.32019" lon="4.48866">
        <ele>357</ele>
        <time>2021-09-24T18:46:37Z</time>
      </trkpt>
      <trkpt lat="44.32018" lon="4.48911">
        <ele>358</ele>
        <time>2021-09-24T18:46:45Z</time>
      </trkpt>
      <trkpt lat="44.3203" lon="4.48975">
        <ele>359</ele>
        <time>2021-09-24T18:46:56Z</time>
      </trkpt>
      <trkpt lat="44.32028" lon="4.49004">
        <ele>360</ele>
        <time>2021-09-24T18:47:01Z</time>
      </trkpt>
      <trkpt lat="44.3197" lon="4.49114">
        <ele>359</ele>
        <time>2021-09-24T18:47:23Z</time>
      </trkpt>
      <trkpt lat="44.31953" lon="4.49167">
        <ele>358</ele>
        <time>2021-09-24T18:47:33Z</time>
      </trkpt>
      <trkpt lat="44.31943" lon="4.49213">
        <ele>356</ele>
        <time>2021-09-24T18:47:41Z</time>
      </trkpt>
      <trkpt lat="44.31928" lon="4.49324">
        <ele>352</ele>
        <time>2021-09-24T18:48:00Z</time>
      </trkpt>
      <trkpt lat="44.31929" lon="4.49362">
        <ele>351</ele>
        <time>2021-09-24T18:48:06Z</time>
      </trkpt>
      <trkpt lat="44.31945" lon="4.49434">
        <ele>349</ele>
        <time>2021-09-24T18:48:19Z</time>
      </trkpt>
      <trkpt lat="44.31981" lon="4.4951">
        <ele>347</ele>
        <time>2021-09-24T18:48:34Z</time>
      </trkpt>
      <trkpt lat="44.31993" lon="4.49553">
        <ele>346</ele>
        <time>2021-09-24T18:48:42Z</time>
      </trkpt>
      <trkpt lat="44.31995" lon="4.49598">
        <ele>346</ele>
        <time>2021-09-24T18:48:49Z</time>
      </trkpt>
      <trkpt lat="44.3198" lon="4.49668">
        <ele>344</ele>
        <time>2021-09-24T18:49:02Z</time>
      </trkpt>
      <trkpt lat="44.31984" lon="4.49697">
        <ele>342</ele>
        <time>2021-09-24T18:49:07Z</time>
      </trkpt>
      <trkpt lat="44.31995" lon="4.49714">
        <ele>341</ele>
        <time>2021-09-24T18:49:10Z</time>
      </trkpt>
      <trkpt lat="44.32038" lon="4.49732">
        <ele>340</ele>
        <time>2021-09-24T18:49:21Z</time>
      </trkpt>
      <trkpt lat="44.32066" lon="4.49755">
        <ele>338</ele>
        <time>2021-09-24T18:49:28Z</time>
      </trkpt>
      <trkpt lat="44.32096" lon="4.49809">
        <ele>334</ele>
        <time>2021-09-24T18:49:40Z</time>
      </trkpt>
      <trkpt lat="44.32116" lon="4.49835">
        <ele>332</ele>
        <time>2021-09-24T18:49:46Z</time>
      </trkpt>
      <trkpt lat="44.3212" lon="4.49846">
        <ele>333</ele>
        <time>2021-09-24T18:49:48Z</time>
      </trkpt>
      <trkpt lat="44.32118" lon="4.49856">
        <ele>333</ele>
        <time>2021-09-24T18:49:50Z</time>
      </trkpt>
      <trkpt lat="44.32108" lon="4.4988">
        <ele>333</ele>
        <time>2021-09-24T18:49:55Z</time>
      </trkpt>
      <trkpt lat="44.32095" lon="4.49896">
        <ele>334</ele>
        <time>2021-09-24T18:49:59Z</time>
      </trkpt>
      <trkpt lat="44.32054" lon="4.49918">
        <ele>332</ele>
        <time>2021-09-24T18:50:09Z</time>
      </trkpt>
      <trkpt lat="44.32003" lon="4.49926">
        <ele>330</ele>
        <time>2021-09-24T18:50:21Z</time>
      </trkpt>
      <trkpt lat="44.31977" lon="4.49938">
        <ele>330</ele>
        <time>2021-09-24T18:50:27Z</time>
      </trkpt>
      <trkpt lat="44.31917" lon="4.49954">
        <ele>328</ele>
        <time>2021-09-24T18:50:42Z</time>
      </trkpt>
      <trkpt lat="44.3189" lon="4.49949">
        <ele>326</ele>
        <time>2021-09-24T18:50:48Z</time>
      </trkpt>
      <trkpt lat="44.31797" lon="4.49947">
        <ele>321</ele>
        <time>2021-09-24T18:51:10Z</time>
      </trkpt>
      <trkpt lat="44.31751" lon="4.49963">
        <ele>320</ele>
        <time>2021-09-24T18:51:21Z</time>
      </trkpt>
      <trkpt lat="44.31718" lon="4.49981">
        <ele>318</ele>
        <time>2021-09-24T18:51:29Z</time>
      </trkpt>
      <trkpt lat="44.31704" lon="4.49996">
        <ele>318</ele>
        <time>2021-09-24T18:51:33Z</time>
      </trkpt>
      <trkpt lat="44.31696" lon="4.50011">
        <ele>318</ele>
        <time>2021-09-24T18:51:36Z</time>
      </trkpt>
      <trkpt lat="44.31691" lon="4.50059">
        <ele>323</ele>
        <time>2021-09-24T18:51:44Z</time>
      </trkpt>
      <trkpt lat="44.31684" lon="4.50071">
        <ele>323</ele>
        <time>2021-09-24T18:51:47Z</time>
      </trkpt>
      <trkpt lat="44.31656" lon="4.50051">
        <ele>318</ele>
        <time>2021-09-24T18:51:54Z</time>
      </trkpt>
      <trkpt lat="44.31621" lon="4.50047">
        <ele>314</ele>
        <time>2021-09-24T18:52:02Z</time>
      </trkpt>
      <trkpt lat="44.31546" lon="4.50084">
        <ele>315</ele>
        <time>2021-09-24T18:52:21Z</time>
      </trkpt>
      <trkpt lat="44.31469" lon="4.50092">
        <ele>312</ele>
        <time>2021-09-24T18:52:39Z</time>
      </trkpt>
      <trkpt lat="44.31433" lon="4.50117">
        <ele>313</ele>
        <time>2021-09-24T18:52:48Z</time>
      </trkpt>
      <trkpt lat="44.31426" lon="4.50126">
        <ele>314</ele>
        <time>2021-09-24T18:52:51Z</time>
      </trkpt>
      <trkpt lat="44.31404" lon="4.50179">
        <ele>316</ele>
        <time>2021-09-24T18:53:01Z</time>
      </trkpt>
      <trkpt lat="44.31375" lon="4.5023">
        <ele>314</ele>
        <time>2021-09-24T18:53:12Z</time>
      </trkpt>
      <trkpt lat="44.31371" lon="4.50257">
        <ele>313</ele>
        <time>2021-09-24T18:53:16Z</time>
      </trkpt>
      <trkpt lat="44.31378" lon="4.50306">
        <ele>313</ele>
        <time>2021-09-24T18:53:25Z</time>
      </trkpt>
      <trkpt lat="44.31376" lon="4.50341">
        <ele>313</ele>
        <time>2021-09-24T18:53:31Z</time>
      </trkpt>
      <trkpt lat="44.31371" lon="4.50358">
        <ele>313</ele>
        <time>2021-09-24T18:53:34Z</time>
      </trkpt>
      <trkpt lat="44.31355" lon="4.5038">
        <ele>312</ele>
        <time>2021-09-24T18:53:39Z</time>
      </trkpt>
      <trkpt lat="44.31343" lon="4.5041">
        <ele>312</ele>
        <time>2021-09-24T18:53:45Z</time>
      </trkpt>
      <trkpt lat="44.31341" lon="4.50504">
        <ele>315</ele>
        <time>2021-09-24T18:54:00Z</time>
      </trkpt>
      <trkpt lat="44.31334" lon="4.5052">
        <ele>315</ele>
        <time>2021-09-24T18:54:04Z</time>
      </trkpt>
      <trkpt lat="44.31314" lon="4.50544">
        <ele>314</ele>
        <time>2021-09-24T18:54:10Z</time>
      </trkpt>
      <trkpt lat="44.31307" lon="4.5059">
        <ele>315</ele>
        <time>2021-09-24T18:54:18Z</time>
      </trkpt>
      <trkpt lat="44.31288" lon="4.50645">
        <ele>314</ele>
        <time>2021-09-24T18:54:28Z</time>
      </trkpt>
      <trkpt lat="44.31285" lon="4.50666">
        <ele>315</ele>
        <time>2021-09-24T18:54:31Z</time>
      </trkpt>
      <trkpt lat="44.31287" lon="4.50818">
        <ele>309</ele>
        <time>2021-09-24T18:54:57Z</time>
      </trkpt>
      <trkpt lat="44.31283" lon="4.50842">
        <ele>308</ele>
        <time>2021-09-24T18:55:01Z</time>
      </trkpt>
      <trkpt lat="44.31228" lon="4.50965">
        <ele>304</ele>
        <time>2021-09-24T18:55:25Z</time>
      </trkpt>
      <trkpt lat="44.31216" lon="4.5103">
        <ele>302</ele>
        <time>2021-09-24T18:55:36Z</time>
      </trkpt>
      <trkpt lat="44.3121" lon="4.51043">
        <ele>302</ele>
        <time>2021-09-24T18:55:39Z</time>
      </trkpt>
      <trkpt lat="44.31165" lon="4.51077">
        <ele>300</ele>
        <time>2021-09-24T18:55:51Z</time>
      </trkpt>
      <trkpt lat="44.31103" lon="4.51135">
        <ele>297</ele>
        <time>2021-09-24T18:56:08Z</time>
      </trkpt>
      <trkpt lat="44.31089" lon="4.5117">
        <ele>297</ele>
        <time>2021-09-24T18:56:15Z</time>
      </trkpt>
      <trkpt lat="44.31059" lon="4.51208">
        <ele>295</ele>
        <time>2021-09-24T18:56:24Z</time>
      </trkpt>
      <trkpt lat="44.31042" lon="4.51259">
        <ele>293</ele>
        <time>2021-09-24T18:56:34Z</time>
      </trkpt>
      <trkpt lat="44.31039" lon="4.51284">
        <ele>293</ele>
        <time>2021-09-24T18:56:38Z</time>
      </trkpt>
      <trkpt lat="44.31045" lon="4.51307">
        <ele>293</ele>
        <time>2021-09-24T18:56:42Z</time>
      </trkpt>
      <trkpt lat="44.31054" lon="4.51319">
        <ele>293</ele>
        <time>2021-09-24T18:56:45Z</time>
      </trkpt>
      <trkpt lat="44.3109" lon="4.51349">
        <ele>293</ele>
        <time>2021-09-24T18:56:55Z</time>
      </trkpt>
      <trkpt lat="44.31095" lon="4.5136">
        <ele>292</ele>
        <time>2021-09-24T18:56:57Z</time>
      </trkpt>
      <trkpt lat="44.31097" lon="4.51385">
        <ele>291</ele>
        <time>2021-09-24T18:57:01Z</time>
      </trkpt>
      <trkpt lat="44.31092" lon="4.51436">
        <ele>290</ele>
        <time>2021-09-24T18:57:10Z</time>
      </trkpt>
      <trkpt lat="44.31105" lon="4.51499">
        <ele>292</ele>
        <time>2021-09-24T18:57:21Z</time>
      </trkpt>
      <trkpt lat="44.31124" lon="4.51531">
        <ele>292</ele>
        <time>2021-09-24T18:57:28Z</time>
      </trkpt>
      <trkpt lat="44.3123" lon="4.51645">
        <ele>294</ele>
        <time>2021-09-24T18:57:59Z</time>
      </trkpt>
      <trkpt lat="44.31245" lon="4.51671">
        <ele>295</ele>
        <time>2021-09-24T18:58:05Z</time>
      </trkpt>
      <trkpt lat="44.31248" lon="4.51711">
        <ele>296</ele>
        <time>2021-09-24T18:58:11Z</time>
      </trkpt>
      <trkpt lat="44.31241" lon="4.51785">
        <ele>297</ele>
        <time>2021-09-24T18:58:24Z</time>
      </trkpt>
      <trkpt lat="44.31243" lon="4.51892">
        <ele>296</ele>
        <time>2021-09-24T18:58:42Z</time>
      </trkpt>
      <trkpt lat="44.31256" lon="4.51958">
        <ele>295</ele>
        <time>2021-09-24T18:58:53Z</time>
      </trkpt>
      <trkpt lat="44.31271" lon="4.51993">
        <ele>294</ele>
        <time>2021-09-24T18:59:00Z</time>
      </trkpt>
      <trkpt lat="44.31306" lon="4.52049">
        <ele>292</ele>
        <time>2021-09-24T18:59:12Z</time>
      </trkpt>
      <trkpt lat="44.31387" lon="4.5214">
        <ele>291</ele>
        <time>2021-09-24T18:59:37Z</time>
      </trkpt>
      <trkpt lat="44.31396" lon="4.52184">
        <ele>290</ele>
        <time>2021-09-24T18:59:44Z</time>
      </trkpt>
      <trkpt lat="44.31373" lon="4.52268">
        <ele>289</ele>
        <time>2021-09-24T18:59:59Z</time>
      </trkpt>
      <trkpt lat="44.31374" lon="4.52293">
        <ele>288</ele>
        <time>2021-09-24T19:00:03Z</time>
      </trkpt>
      <trkpt lat="44.31422" lon="4.52402">
        <ele>287</ele>
        <time>2021-09-24T19:00:25Z</time>
      </trkpt>
      <trkpt lat="44.3143" lon="4.52433">
        <ele>286</ele>
        <time>2021-09-24T19:00:30Z</time>
      </trkpt>
      <trkpt lat="44.31497" lon="4.52615">
        <ele>284</ele>
        <time>2021-09-24T19:01:05Z</time>
      </trkpt>
      <trkpt lat="44.31511" lon="4.5268">
        <ele>283</ele>
        <time>2021-09-24T19:01:16Z</time>
      </trkpt>
      <trkpt lat="44.31517" lon="4.52776">
        <ele>281</ele>
        <time>2021-09-24T19:01:32Z</time>
      </trkpt>
      <trkpt lat="44.3153" lon="4.52862">
        <ele>277</ele>
        <time>2021-09-24T19:01:47Z</time>
      </trkpt>
      <trkpt lat="44.31531" lon="4.52907">
        <ele>274</ele>
        <time>2021-09-24T19:01:54Z</time>
      </trkpt>
      <trkpt lat="44.31502" lon="4.53029">
        <ele>271</ele>
        <time>2021-09-24T19:02:16Z</time>
      </trkpt>
      <trkpt lat="44.31485" lon="4.53078">
        <ele>268</ele>
        <time>2021-09-24T19:02:25Z</time>
      </trkpt>
      <trkpt lat="44.31454" lon="4.53131">
        <ele>264</ele>
        <time>2021-09-24T19:02:36Z</time>
      </trkpt>
      <trkpt lat="44.31443" lon="4.53162">
        <ele>262</ele>
        <time>2021-09-24T19:02:42Z</time>
      </trkpt>
      <trkpt lat="44.31432" lon="4.53213">
        <ele>260</ele>
        <time>2021-09-24T19:02:51Z</time>
      </trkpt>
      <trkpt lat="44.31417" lon="4.53248">
        <ele>258</ele>
        <time>2021-09-24T19:02:58Z</time>
      </trkpt>
      <trkpt lat="44.31395" lon="4.53318">
        <ele>257</ele>
        <time>2021-09-24T19:03:11Z</time>
      </trkpt>
      <trkpt lat="44.31376" lon="4.53466">
        <ele>252</ele>
        <time>2021-09-24T19:03:36Z</time>
      </trkpt>
      <trkpt lat="44.31353" lon="4.53517">
        <ele>248</ele>
        <time>2021-09-24T19:03:46Z</time>
      </trkpt>
      <trkpt lat="44.31353" lon="4.53547">
        <ele>247</ele>
        <time>2021-09-24T19:03:51Z</time>
      </trkpt>
      <trkpt lat="44.31346" lon="4.53585">
        <ele>246</ele>
        <time>2021-09-24T19:03:57Z</time>
      </trkpt>
      <trkpt lat="44.31343" lon="4.53633">
        <ele>243</ele>
        <time>2021-09-24T19:04:05Z</time>
      </trkpt>
      <trkpt lat="44.31344" lon="4.53667">
        <ele>241</ele>
        <time>2021-09-24T19:04:11Z</time>
      </trkpt>
      <trkpt lat="44.31349" lon="4.53682">
        <ele>240</ele>
        <time>2021-09-24T19:04:14Z</time>
      </trkpt>
      <trkpt lat="44.31395" lon="4.53787">
        <ele>241</ele>
        <time>2021-09-24T19:04:34Z</time>
      </trkpt>
      <trkpt lat="44.31414" lon="4.53803">
        <ele>242</ele>
        <time>2021-09-24T19:04:40Z</time>
      </trkpt>
      <trkpt lat="44.31455" lon="4.5385">
        <ele>242</ele>
        <time>2021-09-24T19:04:52Z</time>
      </trkpt>
      <trkpt lat="44.31482" lon="4.53868">
        <ele>244</ele>
        <time>2021-09-24T19:04:59Z</time>
      </trkpt>
      <trkpt lat="44.31517" lon="4.53934">
        <ele>246</ele>
        <time>2021-09-24T19:05:13Z</time>
      </trkpt>
      <trkpt lat="44.31514" lon="4.53995">
        <ele>248</ele>
        <time>2021-09-24T19:05:23Z</time>
      </trkpt>
      <trkpt lat="44.31488" lon="4.54141">
        <ele>253</ele>
        <time>2021-09-24T19:05:48Z</time>
      </trkpt>
      <trkpt lat="44.31489" lon="4.54181">
        <ele>254</ele>
        <time>2021-09-24T19:05:55Z</time>
      </trkpt>
      <trkpt lat="44.31494" lon="4.54203">
        <ele>252</ele>
        <time>2021-09-24T19:05:59Z</time>
      </trkpt>
      <trkpt lat="44.3148" lon="4.54223">
        <ele>250</ele>
        <time>2021-09-24T19:06:03Z</time>
      </trkpt>
      <trkpt lat="44.3145" lon="4.54236">
        <ele>247</ele>
        <time>2021-09-24T19:06:11Z</time>
      </trkpt>
      <trkpt lat="44.31417" lon="4.54263">
        <ele>243</ele>
        <time>2021-09-24T19:06:19Z</time>
      </trkpt>
      <trkpt lat="44.31395" lon="4.54289">
        <ele>240</ele>
        <time>2021-09-24T19:06:26Z</time>
      </trkpt>
      <trkpt lat="44.31372" lon="4.54326">
        <ele>239</ele>
        <time>2021-09-24T19:06:34Z</time>
      </trkpt>
      <trkpt lat="44.3134" lon="4.54351">
        <ele>241</ele>
        <time>2021-09-24T19:06:43Z</time>
      </trkpt>
      <trkpt lat="44.31325" lon="4.5437">
        <ele>243</ele>
        <time>2021-09-24T19:06:48Z</time>
      </trkpt>
      <trkpt lat="44.31295" lon="4.54389">
        <ele>242</ele>
        <time>2021-09-24T19:06:55Z</time>
      </trkpt>
      <trkpt lat="44.31277" lon="4.54411">
        <ele>243</ele>
        <time>2021-09-24T19:07:01Z</time>
      </trkpt>
      <trkpt lat="44.31246" lon="4.54464">
        <ele>239</ele>
        <time>2021-09-24T19:07:12Z</time>
      </trkpt>
      <trkpt lat="44.31191" lon="4.54525">
        <ele>232</ele>
        <time>2021-09-24T19:07:29Z</time>
      </trkpt>
      <trkpt lat="44.31156" lon="4.54581">
        <ele>225</ele>
        <time>2021-09-24T19:07:41Z</time>
      </trkpt>
      <trkpt lat="44.31092" lon="4.54642">
        <ele>211</ele>
        <time>2021-09-24T19:07:59Z</time>
      </trkpt>
      <trkpt lat="44.31072" lon="4.54655">
        <ele>209</ele>
        <time>2021-09-24T19:08:04Z</time>
      </trkpt>
      <trkpt lat="44.31049" lon="4.54697">
        <ele>202</ele>
        <time>2021-09-24T19:08:13Z</time>
      </trkpt>
      <trkpt lat="44.31037" lon="4.54738">
        <ele>196</ele>
        <time>2021-09-24T19:08:21Z</time>
      </trkpt>
      <trkpt lat="44.31016" lon="4.54778">
        <ele>193</ele>
        <time>2021-09-24T19:08:29Z</time>
      </trkpt>
      <trkpt lat="44.30998" lon="4.54851">
        <ele>186</ele>
        <time>2021-09-24T19:08:42Z</time>
      </trkpt>
      <trkpt lat="44.30975" lon="4.54898">
        <ele>179</ele>
        <time>2021-09-24T19:08:51Z</time>
      </trkpt>
      <trkpt lat="44.3095" lon="4.54934">
        <ele>174</ele>
        <time>2021-09-24T19:09:00Z</time>
      </trkpt>
      <trkpt lat="44.3092" lon="4.54954">
        <ele>172</ele>
        <time>2021-09-24T19:09:08Z</time>
      </trkpt>
      <trkpt lat="44.3091" lon="4.54969">
        <ele>170</ele>
        <time>2021-09-24T19:09:11Z</time>
      </trkpt>
      <trkpt lat="44.30875" lon="4.54986">
        <ele>167</ele>
        <time>2021-09-24T19:09:20Z</time>
      </trkpt>
      <trkpt lat="44.30844" lon="4.5502">
        <ele>163</ele>
        <time>2021-09-24T19:09:29Z</time>
      </trkpt>
      <trkpt lat="44.30821" lon="4.55031">
        <ele>162</ele>
        <time>2021-09-24T19:09:35Z</time>
      </trkpt>
      <trkpt lat="44.30813" lon="4.55045">
        <ele>159</ele>
        <time>2021-09-24T19:09:38Z</time>
      </trkpt>
      <trkpt lat="44.30772" lon="4.55059">
        <ele>153</ele>
        <time>2021-09-24T19:09:47Z</time>
      </trkpt>
      <trkpt lat="44.30738" lon="4.55099">
        <ele>145</ele>
        <time>2021-09-24T19:09:58Z</time>
      </trkpt>
      <trkpt lat="44.3072" lon="4.55114">
        <ele>142</ele>
        <time>2021-09-24T19:10:03Z</time>
      </trkpt>
      <trkpt lat="44.30681" lon="4.55131">
        <ele>135</ele>
        <time>2021-09-24T19:10:12Z</time>
      </trkpt>
      <trkpt lat="44.30646" lon="4.55172">
        <ele>126</ele>
        <time>2021-09-24T19:10:23Z</time>
      </trkpt>
      <trkpt lat="44.30608" lon="4.55173">
        <ele>121</ele>
        <time>2021-09-24T19:10:32Z</time>
      </trkpt>
      <trkpt lat="44.30597" lon="4.55186">
        <ele>120</ele>
        <time>2021-09-24T19:10:35Z</time>
      </trkpt>
      <trkpt lat="44.30591" lon="4.55219">
        <ele>120</ele>
        <time>2021-09-24T19:10:41Z</time>
      </trkpt>
      <trkpt lat="44.30567" lon="4.55259">
        <ele>116</ele>
        <time>2021-09-24T19:10:49Z</time>
      </trkpt>
      <trkpt lat="44.30536" lon="4.55285">
        <ele>112</ele>
        <time>2021-09-24T19:10:58Z</time>
      </trkpt>
      <trkpt lat="44.30499" lon="4.55304">
        <ele>107</ele>
        <time>2021-09-24T19:11:07Z</time>
      </trkpt>
      <trkpt lat="44.30446" lon="4.55362">
        <ele>102</ele>
        <time>2021-09-24T19:11:23Z</time>
      </trkpt>
      <trkpt lat="44.3044" lon="4.55383">
        <ele>100</ele>
        <time>2021-09-24T19:11:27Z</time>
      </trkpt>
      <trkpt lat="44.30445" lon="4.5546">
        <ele>96</ele>
        <time>2021-09-24T19:11:40Z</time>
      </trkpt>
      <trkpt lat="44.3045" lon="4.55477">
        <ele>95</ele>
        <time>2021-09-24T19:11:43Z</time>
      </trkpt>
      <trkpt lat="44.3047" lon="4.55505">
        <ele>92</ele>
        <time>2021-09-24T19:11:49Z</time>
      </trkpt>
      <trkpt lat="44.3047" lon="4.55514">
        <ele>90</ele>
        <time>2021-09-24T19:11:51Z</time>
      </trkpt>
      <trkpt lat="44.30463" lon="4.55528">
        <ele>88</ele>
        <time>2021-09-24T19:11:54Z</time>
      </trkpt>
      <trkpt lat="44.30447" lon="4.55535">
        <ele>89</ele>
        <time>2021-09-24T19:11:58Z</time>
      </trkpt>
      <trkpt lat="44.30442" lon="4.55556">
        <ele>87</ele>
        <time>2021-09-24T19:12:01Z</time>
      </trkpt>
      <trkpt lat="44.30429" lon="4.5556">
        <ele>89</ele>
        <time>2021-09-24T19:12:04Z</time>
      </trkpt>
      <trkpt lat="44.30406" lon="4.55575">
        <ele>91</ele>
        <time>2021-09-24T19:12:10Z</time>
      </trkpt>
      <trkpt lat="44.30405" lon="4.55605">
        <ele>86</ele>
        <time>2021-09-24T19:12:15Z</time>
      </trkpt>
      <trkpt lat="44.304" lon="4.55614">
        <ele>84</ele>
        <time>2021-09-24T19:12:17Z</time>
      </trkpt>
      <trkpt lat="44.30369" lon="4.55636">
        <ele>85</ele>
        <time>2021-09-24T19:12:25Z</time>
      </trkpt>
      <trkpt lat="44.30344" lon="4.55662">
        <ele>87</ele>
        <time>2021-09-24T19:12:33Z</time>
      </trkpt>
      <trkpt lat="44.30313" lon="4.55674">
        <ele>88</ele>
        <time>2021-09-24T19:12:40Z</time>
      </trkpt>
      <trkpt lat="44.30303" lon="4.55667">
        <ele>90</ele>
        <time>2021-09-24T19:12:43Z</time>
      </trkpt>
      <trkpt lat="44.3029" lon="4.55672">
        <ele>89</ele>
        <time>2021-09-24T19:12:46Z</time>
      </trkpt>
      <trkpt lat="44.3028" lon="4.55664">
        <ele>91</ele>
        <time>2021-09-24T19:12:49Z</time>
      </trkpt>
      <trkpt lat="44.30276" lon="4.55646">
        <ele>92</ele>
        <time>2021-09-24T19:12:52Z</time>
      </trkpt>
      <trkpt lat="44.30278" lon="4.5562">
        <ele>92</ele>
        <time>2021-09-24T19:12:56Z</time>
      </trkpt>
      <trkpt lat="44.30262" lon="4.55615">
        <ele>92</ele>
        <time>2021-09-24T19:13:00Z</time>
      </trkpt>
      <trkpt lat="44.30262" lon="4.55612">
        <ele>92</ele>
        <time>2021-09-24T19:13:00Z</time>
      </trkpt>
    </trkseg>
  </trk>
</gpx>